<?xml version="1.0" encoding="UTF-8" standalone="no" ?>
<gpx xmlns="http://www.topografix.com/GPX/1/1" xmlns:xsi="http://www.w3.org/2001/XMLSchema-instance" xsi:schemaLocation="http://www.topografix.com/GPX/1/1 http://www.topografix.com/GPX/1/1/gpx.xsd" version="1.1" creator="VisuGPX - https://www.visugpx.com">
  <metadata>
    <name>Monpazier 60 km</name>
  </metadata>
  <trk>
    <name><![CDATA[Tourliac 44k]]></name>
    <trkseg>
      <trkpt lat="44.60528" lon="0.80279">
        <ele>170</ele>
        <time>2022-10-05T13:56:05.467Z</time>
      </trkpt>
      <trkpt lat="44.60526" lon="0.80284">
        <ele>169.8</ele>
        <time>2022-10-05T13:56:05.848Z</time>
      </trkpt>
      <trkpt lat="44.60509" lon="0.8032">
        <ele>169.2</ele>
        <time>2022-10-05T13:56:09.718Z</time>
      </trkpt>
      <trkpt lat="44.60476" lon="0.80408">
        <ele>169.9</ele>
        <time>2022-10-05T13:56:23.488Z</time>
      </trkpt>
      <trkpt lat="44.60465" lon="0.80443">
        <ele>170.7</ele>
        <time>2022-10-05T13:56:30.078Z</time>
      </trkpt>
      <trkpt lat="44.60457" lon="0.80463">
        <ele>170.8</ele>
        <time>2022-10-05T13:56:33.138Z</time>
      </trkpt>
      <trkpt lat="44.60455" lon="0.80462">
        <ele>170.8</ele>
        <time>2022-10-05T13:56:33.514Z</time>
        <extensions>
          <visugpx:TrkExtension xmlns:visugpx="https://www.visugpx.com/editgpx/">
            <visugpx:node>1</visugpx:node>
            </visugpx:TrkExtension>
        </extensions>
      </trkpt>
      <trkpt lat="44.60451" lon="0.8046">
        <ele>170.7</ele>
        <time>2022-10-05T13:56:34.024Z</time>
      </trkpt>
      <trkpt lat="44.6042" lon="0.80422">
        <ele>165.9</ele>
        <time>2022-10-05T13:56:37.655Z</time>
      </trkpt>
      <trkpt lat="44.60392" lon="0.80418">
        <ele>164.2</ele>
        <time>2022-10-05T13:56:40.043Z</time>
      </trkpt>
      <trkpt lat="44.60214" lon="0.80439">
        <ele>156.2</ele>
        <time>2022-10-05T13:56:57.356Z</time>
      </trkpt>
      <trkpt lat="44.60061" lon="0.80469">
        <ele>155.7</ele>
        <time>2022-10-05T13:57:23.386Z</time>
      </trkpt>
      <trkpt lat="44.60032" lon="0.80464">
        <ele>156</ele>
        <time>2022-10-05T13:57:29.089Z</time>
      </trkpt>
      <trkpt lat="44.59995" lon="0.80445">
        <ele>155.4</ele>
        <time>2022-10-05T13:57:34.309Z</time>
      </trkpt>
      <trkpt lat="44.59979" lon="0.80442">
        <ele>156.5</ele>
        <time>2022-10-05T13:57:39.974Z</time>
        <extensions>
          <visugpx:TrkExtension xmlns:visugpx="https://www.visugpx.com/editgpx/">
            <visugpx:node>2</visugpx:node>
            </visugpx:TrkExtension>
        </extensions>
      </trkpt>
      <trkpt lat="44.59977" lon="0.80441">
        <ele>156.6</ele>
        <time>2022-10-05T13:57:40.619Z</time>
      </trkpt>
      <trkpt lat="44.59959" lon="0.80456">
        <ele>157</ele>
        <time>2022-10-05T13:57:45.106Z</time>
      </trkpt>
      <trkpt lat="44.59884" lon="0.80586">
        <ele>150.4</ele>
        <time>2022-10-05T13:57:55.637Z</time>
      </trkpt>
      <trkpt lat="44.59782" lon="0.80735">
        <ele>140.5</ele>
        <time>2022-10-05T13:58:08.625Z</time>
      </trkpt>
      <trkpt lat="44.5977" lon="0.80745">
        <ele>139.8</ele>
        <time>2022-10-05T13:58:09.914Z</time>
      </trkpt>
      <trkpt lat="44.59771" lon="0.80752">
        <ele>139.6</ele>
        <time>2022-10-05T13:58:10.432Z</time>
        <extensions>
          <visugpx:TrkExtension xmlns:visugpx="https://www.visugpx.com/editgpx/">
            <visugpx:node>3</visugpx:node>
            </visugpx:TrkExtension>
        </extensions>
      </trkpt>
      <trkpt lat="44.59774" lon="0.80763">
        <ele>139</ele>
        <time>2022-10-05T13:58:11.173Z</time>
      </trkpt>
      <trkpt lat="44.59743" lon="0.80882">
        <ele>134</ele>
        <time>2022-10-05T13:58:19.147Z</time>
      </trkpt>
      <trkpt lat="44.59735" lon="0.80943">
        <ele>133.4</ele>
        <time>2022-10-05T13:58:25.121Z</time>
      </trkpt>
      <trkpt lat="44.59723" lon="0.80972">
        <ele>134</ele>
        <time>2022-10-05T13:58:30.608Z</time>
      </trkpt>
      <trkpt lat="44.59707" lon="0.81044">
        <ele>134.2</ele>
        <time>2022-10-05T13:58:40.441Z</time>
      </trkpt>
      <trkpt lat="44.59691" lon="0.81091">
        <ele>135.4</ele>
        <time>2022-10-05T13:58:49.764Z</time>
      </trkpt>
      <trkpt lat="44.59676" lon="0.8113">
        <ele>135.1</ele>
        <time>2022-10-05T13:58:54.266Z</time>
      </trkpt>
      <trkpt lat="44.59665" lon="0.81147">
        <ele>134.4</ele>
        <time>2022-10-05T13:58:55.881Z</time>
      </trkpt>
      <trkpt lat="44.59654" lon="0.81168">
        <ele>133.4</ele>
        <time>2022-10-05T13:58:57.543Z</time>
      </trkpt>
      <trkpt lat="44.59594" lon="0.81282">
        <ele>129.9</ele>
        <time>2022-10-05T13:59:08.316Z</time>
      </trkpt>
      <trkpt lat="44.59582" lon="0.81319">
        <ele>126.3</ele>
        <time>2022-10-05T13:59:10.871Z</time>
      </trkpt>
      <trkpt lat="44.59583" lon="0.8137">
        <ele>119</ele>
        <time>2022-10-05T13:59:14.077Z</time>
      </trkpt>
      <trkpt lat="44.59571" lon="0.81428">
        <ele>113.8</ele>
        <time>2022-10-05T13:59:17.873Z</time>
      </trkpt>
      <trkpt lat="44.59541" lon="0.81535">
        <ele>111.1</ele>
        <time>2022-10-05T13:59:26.763Z</time>
      </trkpt>
      <trkpt lat="44.59523" lon="0.8161">
        <ele>105.1</ele>
        <time>2022-10-05T13:59:31.737Z</time>
      </trkpt>
      <trkpt lat="44.59516" lon="0.8165">
        <ele>103.8</ele>
        <time>2022-10-05T13:59:34.592Z</time>
      </trkpt>
      <trkpt lat="44.59514" lon="0.81663">
        <ele>103.6</ele>
        <time>2022-10-05T13:59:35.761Z</time>
      </trkpt>
      <trkpt lat="44.59512" lon="0.81712">
        <ele>103</ele>
        <time>2022-10-05T13:59:40.283Z</time>
      </trkpt>
      <trkpt lat="44.59502" lon="0.81737">
        <ele>102.5</ele>
        <time>2022-10-05T13:59:42.710Z</time>
      </trkpt>
      <trkpt lat="44.59489" lon="0.81756">
        <ele>102.5</ele>
        <time>2022-10-05T13:59:46.028Z</time>
      </trkpt>
      <trkpt lat="44.59477" lon="0.81776">
        <ele>103</ele>
        <time>2022-10-05T13:59:50.396Z</time>
      </trkpt>
      <trkpt lat="44.59469" lon="0.81777">
        <ele>102.9</ele>
        <time>2022-10-05T13:59:51.498Z</time>
        <extensions>
          <visugpx:TrkExtension xmlns:visugpx="https://www.visugpx.com/editgpx/">
            <visugpx:node>4</visugpx:node>
            </visugpx:TrkExtension>
        </extensions>
      </trkpt>
      <trkpt lat="44.59464" lon="0.81778">
        <ele>102.7</ele>
        <time>2022-10-05T13:59:52.012Z</time>
      </trkpt>
      <trkpt lat="44.59456" lon="0.81782">
        <ele>102.4</ele>
        <time>2022-10-05T13:59:52.912Z</time>
      </trkpt>
      <trkpt lat="44.59438" lon="0.81796">
        <ele>102</ele>
        <time>2022-10-05T13:59:55.503Z</time>
      </trkpt>
      <trkpt lat="44.59429" lon="0.81812">
        <ele>102.2</ele>
        <time>2022-10-05T13:59:58.441Z</time>
      </trkpt>
      <trkpt lat="44.59421" lon="0.81826">
        <ele>102.7</ele>
        <time>2022-10-05T14:00:01.964Z</time>
      </trkpt>
      <trkpt lat="44.59411" lon="0.81852">
        <ele>104.3</ele>
        <time>2022-10-05T14:00:09.810Z</time>
      </trkpt>
      <trkpt lat="44.594" lon="0.81876">
        <ele>105.8</ele>
        <time>2022-10-05T14:00:17.256Z</time>
      </trkpt>
      <trkpt lat="44.59376" lon="0.81909">
        <ele>108.9</ele>
        <time>2022-10-05T14:00:31.624Z</time>
      </trkpt>
      <trkpt lat="44.59326" lon="0.81961">
        <ele>114.6</ele>
        <time>2022-10-05T14:00:58.076Z</time>
      </trkpt>
      <trkpt lat="44.59299" lon="0.81974">
        <ele>114.8</ele>
        <time>2022-10-05T14:01:03.470Z</time>
      </trkpt>
      <trkpt lat="44.59235" lon="0.82001">
        <ele>115.6</ele>
        <time>2022-10-05T14:01:16.744Z</time>
      </trkpt>
      <trkpt lat="44.59178" lon="0.82044">
        <ele>117.6</ele>
        <time>2022-10-05T14:01:32.706Z</time>
      </trkpt>
      <trkpt lat="44.59173" lon="0.8205">
        <ele>117.8</ele>
        <time>2022-10-05T14:01:34.319Z</time>
        <extensions>
          <visugpx:TrkExtension xmlns:visugpx="https://www.visugpx.com/editgpx/">
            <visugpx:node>5</visugpx:node>
            </visugpx:TrkExtension>
        </extensions>
      </trkpt>
      <trkpt lat="44.59168" lon="0.82055">
        <ele>118</ele>
        <time>2022-10-05T14:01:35.866Z</time>
      </trkpt>
      <trkpt lat="44.59166" lon="0.82067">
        <ele>118</ele>
        <time>2022-10-05T14:01:37.418Z</time>
      </trkpt>
      <trkpt lat="44.59171" lon="0.8208">
        <ele>118</ele>
        <time>2022-10-05T14:01:39.279Z</time>
      </trkpt>
      <trkpt lat="44.59194" lon="0.82107">
        <ele>117.1</ele>
        <time>2022-10-05T14:01:42.635Z</time>
      </trkpt>
      <trkpt lat="44.59199" lon="0.82117">
        <ele>116.8</ele>
        <time>2022-10-05T14:01:43.565Z</time>
      </trkpt>
      <trkpt lat="44.59197" lon="0.82127">
        <ele>116.4</ele>
        <time>2022-10-05T14:01:44.226Z</time>
      </trkpt>
      <trkpt lat="44.59177" lon="0.82168">
        <ele>116.3</ele>
        <time>2022-10-05T14:01:50.225Z</time>
      </trkpt>
      <trkpt lat="44.59133" lon="0.82254">
        <ele>120.1</ele>
        <time>2022-10-05T14:02:13.604Z</time>
      </trkpt>
      <trkpt lat="44.59106" lon="0.82291">
        <ele>119.5</ele>
        <time>2022-10-05T14:02:18.562Z</time>
      </trkpt>
      <trkpt lat="44.59088" lon="0.82326">
        <ele>118.6</ele>
        <time>2022-10-05T14:02:22.030Z</time>
      </trkpt>
      <trkpt lat="44.59048" lon="0.82402">
        <ele>122</ele>
        <time>2022-10-05T14:02:42.913Z</time>
      </trkpt>
      <trkpt lat="44.59047" lon="0.82411">
        <ele>122.8</ele>
        <time>2022-10-05T14:02:46.774Z</time>
      </trkpt>
      <trkpt lat="44.59053" lon="0.82428">
        <ele>123.5</ele>
        <time>2022-10-05T14:02:51.002Z</time>
      </trkpt>
      <trkpt lat="44.59056" lon="0.82456">
        <ele>123.5</ele>
        <time>2022-10-05T14:02:54.568Z</time>
      </trkpt>
      <trkpt lat="44.59057" lon="0.82469">
        <ele>123</ele>
        <time>2022-10-05T14:02:55.403Z</time>
      </trkpt>
      <trkpt lat="44.5905" lon="0.82473">
        <ele>123.2</ele>
        <time>2022-10-05T14:02:57.167Z</time>
      </trkpt>
      <trkpt lat="44.58988" lon="0.82453">
        <ele>126.3</ele>
        <time>2022-10-05T14:03:16.677Z</time>
      </trkpt>
      <trkpt lat="44.58943" lon="0.82432">
        <ele>127.6</ele>
        <time>2022-10-05T14:03:27.875Z</time>
      </trkpt>
      <trkpt lat="44.58933" lon="0.82428">
        <ele>128.1</ele>
        <time>2022-10-05T14:03:31.051Z</time>
        <extensions>
          <visugpx:TrkExtension xmlns:visugpx="https://www.visugpx.com/editgpx/">
            <visugpx:node>6</visugpx:node>
            </visugpx:TrkExtension>
        </extensions>
      </trkpt>
      <trkpt lat="44.58943" lon="0.82432">
        <ele>127.6</ele>
        <time>2022-10-05T14:03:32.029Z</time>
      </trkpt>
      <trkpt lat="44.5891" lon="0.82557">
        <ele>128.2</ele>
        <time>2022-10-05T14:03:49.851Z</time>
      </trkpt>
      <trkpt lat="44.58907" lon="0.82573">
        <ele>128.3</ele>
        <time>2022-10-05T14:03:52.110Z</time>
      </trkpt>
      <trkpt lat="44.58913" lon="0.82582">
        <ele>128.1</ele>
        <time>2022-10-05T14:03:53.174Z</time>
      </trkpt>
      <trkpt lat="44.58961" lon="0.82608">
        <ele>126.7</ele>
        <time>2022-10-05T14:03:59.108Z</time>
      </trkpt>
      <trkpt lat="44.58979" lon="0.82623">
        <ele>125.4</ele>
        <time>2022-10-05T14:04:00.860Z</time>
      </trkpt>
      <trkpt lat="44.58983" lon="0.82649">
        <ele>125.6</ele>
        <time>2022-10-05T14:04:04.569Z</time>
      </trkpt>
      <trkpt lat="44.58977" lon="0.82726">
        <ele>128.5</ele>
        <time>2022-10-05T14:04:21.920Z</time>
      </trkpt>
      <trkpt lat="44.5899" lon="0.82773">
        <ele>127.1</ele>
        <time>2022-10-05T14:04:25.593Z</time>
      </trkpt>
      <trkpt lat="44.59014" lon="0.82784">
        <ele>125</ele>
        <time>2022-10-05T14:04:27.821Z</time>
      </trkpt>
      <trkpt lat="44.59042" lon="0.82792">
        <ele>122.5</ele>
        <time>2022-10-05T14:04:30.343Z</time>
      </trkpt>
      <trkpt lat="44.59045" lon="0.82802">
        <ele>122.1</ele>
        <time>2022-10-05T14:04:31.047Z</time>
      </trkpt>
      <trkpt lat="44.59026" lon="0.82888">
        <ele>122.2</ele>
        <time>2022-10-05T14:04:42.552Z</time>
      </trkpt>
      <trkpt lat="44.5902" lon="0.82902">
        <ele>121.6</ele>
        <time>2022-10-05T14:04:43.614Z</time>
      </trkpt>
      <trkpt lat="44.59" lon="0.82923">
        <ele>121.5</ele>
        <time>2022-10-05T14:04:47.775Z</time>
      </trkpt>
      <trkpt lat="44.58978" lon="0.82936">
        <ele>121.4</ele>
        <time>2022-10-05T14:04:51.742Z</time>
      </trkpt>
      <trkpt lat="44.58949" lon="0.82947">
        <ele>121.7</ele>
        <time>2022-10-05T14:04:57.589Z</time>
      </trkpt>
      <trkpt lat="44.58907" lon="0.82996">
        <ele>123.5</ele>
        <time>2022-10-05T14:05:11.423Z</time>
      </trkpt>
      <trkpt lat="44.58893" lon="0.83021">
        <ele>127</ele>
        <time>2022-10-05T14:05:26.873Z</time>
      </trkpt>
      <trkpt lat="44.58877" lon="0.83078">
        <ele>130.7</ele>
        <time>2022-10-05T14:05:44.351Z</time>
      </trkpt>
      <trkpt lat="44.58704" lon="0.83233">
        <ele>139.8</ele>
        <time>2022-10-05T14:06:45.467Z</time>
      </trkpt>
      <trkpt lat="44.58676" lon="0.83275">
        <ele>140.4</ele>
        <time>2022-10-05T14:06:53.836Z</time>
      </trkpt>
      <trkpt lat="44.58669" lon="0.833">
        <ele>141.6</ele>
        <time>2022-10-05T14:07:00.290Z</time>
      </trkpt>
      <trkpt lat="44.58686" lon="0.83317">
        <ele>141.4</ele>
        <time>2022-10-05T14:07:03.264Z</time>
      </trkpt>
      <trkpt lat="44.58709" lon="0.83331">
        <ele>140.8</ele>
        <time>2022-10-05T14:07:06.261Z</time>
      </trkpt>
      <trkpt lat="44.58716" lon="0.8334">
        <ele>140.6</ele>
        <time>2022-10-05T14:07:07.434Z</time>
      </trkpt>
      <trkpt lat="44.5872" lon="0.83351">
        <ele>140.7</ele>
        <time>2022-10-05T14:07:09.170Z</time>
      </trkpt>
      <trkpt lat="44.58721" lon="0.83372">
        <ele>140.3</ele>
        <time>2022-10-05T14:07:10.909Z</time>
      </trkpt>
      <trkpt lat="44.58727" lon="0.83384">
        <ele>139.1</ele>
        <time>2022-10-05T14:07:11.831Z</time>
      </trkpt>
      <trkpt lat="44.58762" lon="0.83421">
        <ele>134.3</ele>
        <time>2022-10-05T14:07:15.697Z</time>
      </trkpt>
      <trkpt lat="44.58791" lon="0.83449">
        <ele>131.2</ele>
        <time>2022-10-05T14:07:18.803Z</time>
      </trkpt>
      <trkpt lat="44.58805" lon="0.83475">
        <ele>128.8</ele>
        <time>2022-10-05T14:07:20.851Z</time>
      </trkpt>
      <trkpt lat="44.58807" lon="0.8349">
        <ele>127.4</ele>
        <time>2022-10-05T14:07:21.810Z</time>
      </trkpt>
      <trkpt lat="44.58805" lon="0.83503">
        <ele>126.6</ele>
        <time>2022-10-05T14:07:22.646Z</time>
      </trkpt>
      <trkpt lat="44.58798" lon="0.83517">
        <ele>125.2</ele>
        <time>2022-10-05T14:07:23.721Z</time>
      </trkpt>
      <trkpt lat="44.588" lon="0.83545">
        <ele>123.6</ele>
        <time>2022-10-05T14:07:25.490Z</time>
      </trkpt>
      <trkpt lat="44.58811" lon="0.83609">
        <ele>123</ele>
        <time>2022-10-05T14:07:31.897Z</time>
        <extensions>
          <visugpx:TrkExtension xmlns:visugpx="https://www.visugpx.com/editgpx/">
            <visugpx:node>7</visugpx:node>
            </visugpx:TrkExtension>
        </extensions>
      </trkpt>
      <trkpt lat="44.58814" lon="0.83626">
        <ele>124.6</ele>
        <time>2022-10-05T14:07:39.815Z</time>
      </trkpt>
      <trkpt lat="44.58779" lon="0.83637">
        <ele>124.9</ele>
        <time>2022-10-05T14:07:46.684Z</time>
      </trkpt>
      <trkpt lat="44.58669" lon="0.83687">
        <ele>127.6</ele>
        <time>2022-10-05T14:08:12.695Z</time>
      </trkpt>
      <trkpt lat="44.58649" lon="0.83699">
        <ele>127.9</ele>
        <time>2022-10-05T14:08:17.098Z</time>
      </trkpt>
      <trkpt lat="44.58628" lon="0.83725">
        <ele>128.7</ele>
        <time>2022-10-05T14:08:23.805Z</time>
        <extensions>
          <visugpx:TrkExtension xmlns:visugpx="https://www.visugpx.com/editgpx/">
            <visugpx:node>8</visugpx:node>
            </visugpx:TrkExtension>
        </extensions>
      </trkpt>
      <trkpt lat="44.58621" lon="0.83734">
        <ele>128.7</ele>
        <time>2022-10-05T14:08:25.483Z</time>
      </trkpt>
      <trkpt lat="44.58639" lon="0.83774">
        <ele>133.6</ele>
        <time>2022-10-05T14:08:48.470Z</time>
      </trkpt>
      <trkpt lat="44.58665" lon="0.838">
        <ele>139.5</ele>
        <time>2022-10-05T14:09:10.243Z</time>
      </trkpt>
      <trkpt lat="44.58714" lon="0.83832">
        <ele>146.4</ele>
        <time>2022-10-05T14:09:44.277Z</time>
      </trkpt>
      <trkpt lat="44.58735" lon="0.83835">
        <ele>147.5</ele>
        <time>2022-10-05T14:09:50.896Z</time>
      </trkpt>
      <trkpt lat="44.58782" lon="0.8389">
        <ele>150.3</ele>
        <time>2022-10-05T14:10:09.305Z</time>
      </trkpt>
      <trkpt lat="44.588" lon="0.83905">
        <ele>152.1</ele>
        <time>2022-10-05T14:10:17.775Z</time>
      </trkpt>
      <trkpt lat="44.58843" lon="0.8398">
        <ele>152.7</ele>
        <time>2022-10-05T14:10:30.958Z</time>
      </trkpt>
      <trkpt lat="44.58871" lon="0.84045">
        <ele>152.1</ele>
        <time>2022-10-05T14:10:38.516Z</time>
      </trkpt>
      <trkpt lat="44.58902" lon="0.84068">
        <ele>152</ele>
        <time>2022-10-05T14:10:44.457Z</time>
      </trkpt>
      <trkpt lat="44.58924" lon="0.84098">
        <ele>151.9</ele>
        <time>2022-10-05T14:10:49.622Z</time>
        <extensions>
          <visugpx:TrkExtension xmlns:visugpx="https://www.visugpx.com/editgpx/">
            <visugpx:node>9</visugpx:node>
            </visugpx:TrkExtension>
        </extensions>
      </trkpt>
      <trkpt lat="44.58933" lon="0.8411">
        <ele>151.4</ele>
      </trkpt>
      <trkpt lat="44.5892" lon="0.84119">
        <ele>151.6</ele>
      </trkpt>
      <trkpt lat="44.58912" lon="0.84131">
        <ele>151.6</ele>
      </trkpt>
      <trkpt lat="44.58903" lon="0.84154">
        <ele>152</ele>
      </trkpt>
      <trkpt lat="44.58905" lon="0.8416">
        <ele>151.8</ele>
      </trkpt>
      <trkpt lat="44.58905" lon="0.84183">
        <ele>151.9</ele>
      </trkpt>
      <trkpt lat="44.58897" lon="0.84209">
        <ele>151.5</ele>
      </trkpt>
      <trkpt lat="44.58883" lon="0.84246">
        <ele>150.4</ele>
      </trkpt>
      <trkpt lat="44.58879" lon="0.84262">
        <ele>149.9</ele>
      </trkpt>
      <trkpt lat="44.58877" lon="0.84285">
        <ele>149.2</ele>
      </trkpt>
      <trkpt lat="44.58878" lon="0.84324">
        <ele>148.4</ele>
      </trkpt>
      <trkpt lat="44.58882" lon="0.84338">
        <ele>148.4</ele>
      </trkpt>
      <trkpt lat="44.58898" lon="0.84377">
        <ele>149.8</ele>
      </trkpt>
      <trkpt lat="44.58903" lon="0.84405">
        <ele>151.7</ele>
      </trkpt>
      <trkpt lat="44.58906" lon="0.84447">
        <ele>153.7</ele>
      </trkpt>
      <trkpt lat="44.58912" lon="0.84472">
        <ele>154.7</ele>
      </trkpt>
      <trkpt lat="44.58913" lon="0.84493">
        <ele>154.8</ele>
      </trkpt>
      <trkpt lat="44.58922" lon="0.84532">
        <ele>154.1</ele>
      </trkpt>
      <trkpt lat="44.58923" lon="0.84566">
        <ele>152.3</ele>
      </trkpt>
      <trkpt lat="44.58921" lon="0.84585">
        <ele>151.8</ele>
      </trkpt>
      <trkpt lat="44.58912" lon="0.84612">
        <ele>152.3</ele>
      </trkpt>
      <trkpt lat="44.58908" lon="0.84636">
        <ele>152.6</ele>
      </trkpt>
      <trkpt lat="44.58906" lon="0.84681">
        <ele>153.7</ele>
      </trkpt>
      <trkpt lat="44.58897" lon="0.84702">
        <ele>154.6</ele>
      </trkpt>
      <trkpt lat="44.58864" lon="0.84741">
        <ele>156.5</ele>
      </trkpt>
      <trkpt lat="44.58846" lon="0.84784">
        <ele>158.3</ele>
      </trkpt>
      <trkpt lat="44.58832" lon="0.84828">
        <ele>159.9</ele>
      </trkpt>
      <trkpt lat="44.58802" lon="0.84903">
        <ele>164.1</ele>
      </trkpt>
      <trkpt lat="44.58781" lon="0.84929">
        <ele>166.8</ele>
      </trkpt>
      <trkpt lat="44.58768" lon="0.84957">
        <ele>168.6</ele>
      </trkpt>
      <trkpt lat="44.58759" lon="0.85006">
        <ele>169.4</ele>
      </trkpt>
      <trkpt lat="44.58747" lon="0.85011">
        <ele>168.8</ele>
      </trkpt>
      <trkpt lat="44.58741" lon="0.8502">
        <ele>168.4</ele>
      </trkpt>
      <trkpt lat="44.58748" lon="0.85044">
        <ele>168.9</ele>
      </trkpt>
      <trkpt lat="44.58781" lon="0.85175">
        <ele>174.4</ele>
      </trkpt>
      <trkpt lat="44.58794" lon="0.85236">
        <ele>176.6</ele>
      </trkpt>
      <trkpt lat="44.58811" lon="0.85352">
        <ele>177.4</ele>
      </trkpt>
      <trkpt lat="44.58822" lon="0.85384">
        <ele>177.4</ele>
      </trkpt>
      <trkpt lat="44.58838" lon="0.85406">
        <ele>177.6</ele>
      </trkpt>
      <trkpt lat="44.58829" lon="0.85429">
        <ele>178.5</ele>
      </trkpt>
      <trkpt lat="44.58828" lon="0.85431">
        <ele>178.6</ele>
        <extensions>
          <visugpx:TrkExtension xmlns:visugpx="https://www.visugpx.com/editgpx/">
            <visugpx:node>10</visugpx:node>
            </visugpx:TrkExtension>
        </extensions>
      </trkpt>
      <trkpt lat="44.58829" lon="0.85429">
        <ele>178.5</ele>
      </trkpt>
      <trkpt lat="44.58838" lon="0.85406">
        <ele>177.6</ele>
      </trkpt>
      <trkpt lat="44.589" lon="0.85314">
        <ele>172</ele>
      </trkpt>
      <trkpt lat="44.58923" lon="0.85286">
        <ele>170.1</ele>
      </trkpt>
      <trkpt lat="44.58935" lon="0.85277">
        <ele>169.4</ele>
      </trkpt>
      <trkpt lat="44.5895" lon="0.85269">
        <ele>168.9</ele>
      </trkpt>
      <trkpt lat="44.59001" lon="0.85201">
        <ele>167</ele>
      </trkpt>
      <trkpt lat="44.5902" lon="0.85188">
        <ele>166.8</ele>
      </trkpt>
      <trkpt lat="44.59041" lon="0.85176">
        <ele>166.2</ele>
      </trkpt>
      <trkpt lat="44.59066" lon="0.85167">
        <ele>166</ele>
      </trkpt>
      <trkpt lat="44.59126" lon="0.85152">
        <ele>165.2</ele>
      </trkpt>
      <trkpt lat="44.5914" lon="0.85143">
        <ele>165</ele>
      </trkpt>
      <trkpt lat="44.59191" lon="0.85105">
        <ele>163.8</ele>
      </trkpt>
      <trkpt lat="44.59233" lon="0.85072">
        <ele>161.5</ele>
      </trkpt>
      <trkpt lat="44.59246" lon="0.85067">
        <ele>161.6</ele>
      </trkpt>
      <trkpt lat="44.59291" lon="0.85039">
        <ele>161.7</ele>
      </trkpt>
      <trkpt lat="44.59307" lon="0.85023">
        <ele>162.3</ele>
      </trkpt>
      <trkpt lat="44.59317" lon="0.8501">
        <ele>162.6</ele>
      </trkpt>
      <trkpt lat="44.59321" lon="0.85001">
        <ele>162.8</ele>
      </trkpt>
      <trkpt lat="44.59329" lon="0.84972">
        <ele>164</ele>
      </trkpt>
      <trkpt lat="44.59337" lon="0.8496">
        <ele>163.8</ele>
      </trkpt>
      <trkpt lat="44.59394" lon="0.84896">
        <ele>162.2</ele>
      </trkpt>
      <trkpt lat="44.59399" lon="0.84885">
        <ele>162.4</ele>
      </trkpt>
      <trkpt lat="44.59399" lon="0.84843">
        <ele>162.4</ele>
      </trkpt>
      <trkpt lat="44.59397" lon="0.84833">
        <ele>162</ele>
      </trkpt>
      <trkpt lat="44.59397" lon="0.84824">
        <ele>161.8</ele>
      </trkpt>
      <trkpt lat="44.5939" lon="0.84808">
        <ele>161.1</ele>
      </trkpt>
      <trkpt lat="44.59389" lon="0.84805">
        <ele>160.9</ele>
        <time>2022-10-05T14:14:29.986Z</time>
      </trkpt>
      <trkpt lat="44.5939" lon="0.84808">
        <ele>161.1</ele>
        <time>2022-10-05T14:14:30.931Z</time>
        <extensions>
          <visugpx:TrkExtension xmlns:visugpx="https://www.visugpx.com/editgpx/">
            <visugpx:node>11</visugpx:node>
            </visugpx:TrkExtension>
        </extensions>
      </trkpt>
      <trkpt lat="44.59397" lon="0.84824">
        <ele>161.8</ele>
        <time>2022-10-05T14:14:35.131Z</time>
      </trkpt>
      <trkpt lat="44.59397" lon="0.84833">
        <ele>162</ele>
        <time>2022-10-05T14:14:36.718Z</time>
      </trkpt>
      <trkpt lat="44.59462" lon="0.84752">
        <ele>162</ele>
        <time>2022-10-05T14:14:52.087Z</time>
        <extensions>
          <visugpx:TrkExtension xmlns:visugpx="https://www.visugpx.com/editgpx/">
            <visugpx:node>12</visugpx:node>
            </visugpx:TrkExtension>
        </extensions>
      </trkpt>
      <trkpt lat="44.59471" lon="0.84741">
        <ele>162.3</ele>
        <time>2022-10-05T14:14:54.828Z</time>
      </trkpt>
      <trkpt lat="44.59422" lon="0.84586">
        <ele>159.9</ele>
        <time>2022-10-05T14:15:09.957Z</time>
      </trkpt>
      <trkpt lat="44.59425" lon="0.84526">
        <ele>156.1</ele>
        <time>2022-10-05T14:15:13.737Z</time>
        <extensions>
          <visugpx:TrkExtension xmlns:visugpx="https://www.visugpx.com/editgpx/">
            <visugpx:node>13</visugpx:node>
            </visugpx:TrkExtension>
        </extensions>
      </trkpt>
      <trkpt lat="44.59492" lon="0.84442">
        <ele>153.9</ele>
        <time>2022-10-05T14:15:24.409Z</time>
      </trkpt>
      <trkpt lat="44.59604" lon="0.84337">
        <ele>155.7</ele>
        <time>2022-10-05T14:15:51.547Z</time>
      </trkpt>
      <trkpt lat="44.59655" lon="0.84288">
        <ele>154.3</ele>
        <time>2022-10-05T14:15:59.044Z</time>
      </trkpt>
      <trkpt lat="44.59701" lon="0.84213">
        <ele>148.5</ele>
        <time>2022-10-05T14:16:05.264Z</time>
      </trkpt>
      <trkpt lat="44.59719" lon="0.84198">
        <ele>147.4</ele>
        <time>2022-10-05T14:16:07.159Z</time>
      </trkpt>
      <trkpt lat="44.59792" lon="0.84078">
        <ele>142.7</ele>
        <time>2022-10-05T14:16:18.353Z</time>
      </trkpt>
      <trkpt lat="44.59843" lon="0.84008">
        <ele>144.4</ele>
        <time>2022-10-05T14:16:34.487Z</time>
        <extensions>
          <visugpx:TrkExtension xmlns:visugpx="https://www.visugpx.com/editgpx/">
            <visugpx:node>14</visugpx:node>
            </visugpx:TrkExtension>
        </extensions>
      </trkpt>
      <trkpt lat="44.59849" lon="0.84">
        <ele>144.6</ele>
        <time>2022-10-05T14:16:36.367Z</time>
      </trkpt>
      <trkpt lat="44.59914" lon="0.84116">
        <ele>145.9</ele>
        <time>2022-10-05T14:16:57.329Z</time>
      </trkpt>
      <trkpt lat="44.5996" lon="0.84226">
        <ele>137.9</ele>
        <time>2022-10-05T14:17:05.345Z</time>
      </trkpt>
      <trkpt lat="44.59984" lon="0.8425">
        <ele>135.3</ele>
        <time>2022-10-05T14:17:07.945Z</time>
      </trkpt>
      <trkpt lat="44.60056" lon="0.84267">
        <ele>126.5</ele>
        <time>2022-10-05T14:17:14.389Z</time>
      </trkpt>
      <trkpt lat="44.60082" lon="0.84305">
        <ele>126.9</ele>
        <time>2022-10-05T14:17:21.743Z</time>
      </trkpt>
      <trkpt lat="44.60084" lon="0.84302">
        <ele>126.8</ele>
        <time>2022-10-05T14:17:22.057Z</time>
      </trkpt>
      <trkpt lat="44.60106" lon="0.84273">
        <ele>125.5</ele>
        <time>2022-10-05T14:17:25.027Z</time>
      </trkpt>
      <trkpt lat="44.60107" lon="0.8427">
        <ele>125.3</ele>
        <time>2022-10-05T14:17:25.235Z</time>
      </trkpt>
      <trkpt lat="44.60113" lon="0.84306">
        <ele>129</ele>
        <time>2022-10-05T14:17:43.192Z</time>
        <extensions>
          <visugpx:TrkExtension xmlns:visugpx="https://www.visugpx.com/editgpx/">
            <visugpx:node>15</visugpx:node>
            </visugpx:TrkExtension>
        </extensions>
      </trkpt>
      <trkpt lat="44.60107" lon="0.8427">
        <ele>125.3</ele>
        <time>2022-10-05T14:17:45.516Z</time>
      </trkpt>
      <trkpt lat="44.60115" lon="0.8425">
        <ele>124</ele>
        <time>2022-10-05T14:17:46.957Z</time>
      </trkpt>
      <trkpt lat="44.60136" lon="0.84168">
        <ele>122.9</ele>
        <time>2022-10-05T14:17:54.931Z</time>
      </trkpt>
      <trkpt lat="44.60138" lon="0.84147">
        <ele>123</ele>
        <time>2022-10-05T14:17:57.771Z</time>
      </trkpt>
      <trkpt lat="44.60154" lon="0.84141">
        <ele>124.5</ele>
        <time>2022-10-05T14:18:04.747Z</time>
      </trkpt>
      <trkpt lat="44.60167" lon="0.84128">
        <ele>126.9</ele>
        <time>2022-10-05T14:18:15.633Z</time>
      </trkpt>
      <trkpt lat="44.60178" lon="0.84103">
        <ele>130.8</ele>
        <time>2022-10-05T14:18:29.906Z</time>
      </trkpt>
      <trkpt lat="44.60195" lon="0.8409">
        <ele>134.1</ele>
        <time>2022-10-05T14:18:43.110Z</time>
      </trkpt>
      <trkpt lat="44.60202" lon="0.84077">
        <ele>135.5</ele>
        <time>2022-10-05T14:18:49.791Z</time>
      </trkpt>
      <trkpt lat="44.60213" lon="0.8407">
        <ele>137.5</ele>
        <time>2022-10-05T14:18:58.029Z</time>
      </trkpt>
      <trkpt lat="44.60227" lon="0.84079">
        <ele>139.7</ele>
        <time>2022-10-05T14:19:08.531Z</time>
      </trkpt>
      <trkpt lat="44.60248" lon="0.84097">
        <ele>142.7</ele>
        <time>2022-10-05T14:19:22.923Z</time>
      </trkpt>
      <trkpt lat="44.60274" lon="0.84104">
        <ele>144.7</ele>
        <time>2022-10-05T14:19:32.755Z</time>
      </trkpt>
      <trkpt lat="44.60299" lon="0.84102">
        <ele>146.3</ele>
        <time>2022-10-05T14:19:41.274Z</time>
      </trkpt>
      <trkpt lat="44.6034" lon="0.84086">
        <ele>145.8</ele>
        <time>2022-10-05T14:19:47.167Z</time>
      </trkpt>
      <trkpt lat="44.60356" lon="0.8408">
        <ele>146</ele>
        <time>2022-10-05T14:19:50.460Z</time>
      </trkpt>
      <trkpt lat="44.60402" lon="0.8408">
        <ele>146.9</ele>
        <time>2022-10-05T14:20:00.372Z</time>
      </trkpt>
      <trkpt lat="44.60419" lon="0.84076">
        <ele>147.1</ele>
        <time>2022-10-05T14:20:03.783Z</time>
      </trkpt>
      <trkpt lat="44.60477" lon="0.84047">
        <ele>148.7</ele>
        <time>2022-10-05T14:20:18.072Z</time>
      </trkpt>
      <trkpt lat="44.60486" lon="0.84042">
        <ele>148.8</ele>
        <time>2022-10-05T14:20:19.963Z</time>
        <extensions>
          <visugpx:TrkExtension xmlns:visugpx="https://www.visugpx.com/editgpx/">
            <visugpx:node>16</visugpx:node>
            </visugpx:TrkExtension>
        </extensions>
      </trkpt>
      <trkpt lat="44.60493" lon="0.84038">
        <ele>148.8</ele>
        <time>2022-10-05T14:20:21.299Z</time>
      </trkpt>
      <trkpt lat="44.60496" lon="0.84059">
        <ele>148.9</ele>
        <time>2022-10-05T14:20:24.168Z</time>
      </trkpt>
      <trkpt lat="44.60504" lon="0.8408">
        <ele>148</ele>
        <time>2022-10-05T14:20:25.697Z</time>
      </trkpt>
      <trkpt lat="44.60518" lon="0.84094">
        <ele>146.7</ele>
        <time>2022-10-05T14:20:27.213Z</time>
      </trkpt>
      <trkpt lat="44.60561" lon="0.84119">
        <ele>144.6</ele>
        <time>2022-10-05T14:20:31.710Z</time>
      </trkpt>
      <trkpt lat="44.60599" lon="0.84145">
        <ele>145.6</ele>
        <time>2022-10-05T14:20:41.253Z</time>
      </trkpt>
      <trkpt lat="44.60605" lon="0.84152">
        <ele>146.2</ele>
        <time>2022-10-05T14:20:44.182Z</time>
      </trkpt>
      <trkpt lat="44.6062" lon="0.8417">
        <ele>148</ele>
        <time>2022-10-05T14:20:52.541Z</time>
      </trkpt>
      <trkpt lat="44.60653" lon="0.84218">
        <ele>150.7</ele>
        <time>2022-10-05T14:21:07.920Z</time>
      </trkpt>
      <trkpt lat="44.60671" lon="0.84232">
        <ele>152.1</ele>
        <time>2022-10-05T14:21:15.136Z</time>
      </trkpt>
      <trkpt lat="44.60731" lon="0.84257">
        <ele>157.1</ele>
        <time>2022-10-05T14:21:39.203Z</time>
      </trkpt>
      <trkpt lat="44.60792" lon="0.84274">
        <ele>160.4</ele>
        <time>2022-10-05T14:21:58.827Z</time>
      </trkpt>
      <trkpt lat="44.60821" lon="0.84282">
        <ele>160.3</ele>
        <time>2022-10-05T14:22:03.796Z</time>
      </trkpt>
      <trkpt lat="44.60824" lon="0.84283">
        <ele>160.1</ele>
        <time>2022-10-05T14:22:04.049Z</time>
      </trkpt>
      <trkpt lat="44.60951" lon="0.84287">
        <ele>154.1</ele>
        <time>2022-10-05T14:22:16.093Z</time>
      </trkpt>
      <trkpt lat="44.60992" lon="0.84285">
        <ele>151.7</ele>
        <time>2022-10-05T14:22:19.629Z</time>
      </trkpt>
      <trkpt lat="44.61051" lon="0.84271">
        <ele>148.3</ele>
        <time>2022-10-05T14:22:24.856Z</time>
      </trkpt>
      <trkpt lat="44.61083" lon="0.84263">
        <ele>147</ele>
        <time>2022-10-05T14:22:28.150Z</time>
      </trkpt>
      <trkpt lat="44.61156" lon="0.84245">
        <ele>142.2</ele>
        <time>2022-10-05T14:22:34.230Z</time>
      </trkpt>
      <trkpt lat="44.61181" lon="0.84243">
        <ele>140.1</ele>
        <time>2022-10-05T14:22:36.439Z</time>
      </trkpt>
      <trkpt lat="44.61184" lon="0.84242">
        <ele>139.9</ele>
        <time>2022-10-05T14:22:36.692Z</time>
      </trkpt>
      <trkpt lat="44.61195" lon="0.84242">
        <ele>139.3</ele>
        <time>2022-10-05T14:22:37.671Z</time>
      </trkpt>
      <trkpt lat="44.61184" lon="0.84242">
        <ele>139.9</ele>
        <time>2022-10-05T14:22:41.177Z</time>
      </trkpt>
      <trkpt lat="44.61195" lon="0.84242">
        <ele>139.3</ele>
        <time>2022-10-05T14:22:42.157Z</time>
        <extensions>
          <visugpx:TrkExtension xmlns:visugpx="https://www.visugpx.com/editgpx/">
            <visugpx:node>17</visugpx:node>
            </visugpx:TrkExtension>
        </extensions>
      </trkpt>
      <trkpt lat="44.61221" lon="0.84242">
        <ele>138.3</ele>
        <time>2022-10-05T14:22:44.830Z</time>
      </trkpt>
      <trkpt lat="44.61272" lon="0.84254">
        <ele>136.4</ele>
        <time>2022-10-05T14:22:50.237Z</time>
      </trkpt>
      <trkpt lat="44.61297" lon="0.8428">
        <ele>136.5</ele>
        <time>2022-10-05T14:22:55.905Z</time>
      </trkpt>
      <trkpt lat="44.61328" lon="0.84312">
        <ele>138.3</ele>
        <time>2022-10-05T14:23:07.556Z</time>
      </trkpt>
      <trkpt lat="44.61353" lon="0.84333">
        <ele>139.7</ele>
        <time>2022-10-05T14:23:16.451Z</time>
      </trkpt>
      <trkpt lat="44.61377" lon="0.84366">
        <ele>140.6</ele>
        <time>2022-10-05T14:23:24.322Z</time>
      </trkpt>
      <trkpt lat="44.61415" lon="0.84398">
        <ele>141</ele>
        <time>2022-10-05T14:23:32.864Z</time>
      </trkpt>
      <trkpt lat="44.61476" lon="0.84437">
        <ele>143.9</ele>
        <time>2022-10-05T14:23:52.498Z</time>
      </trkpt>
      <trkpt lat="44.61533" lon="0.84488">
        <ele>147.5</ele>
        <time>2022-10-05T14:24:13.854Z</time>
      </trkpt>
      <trkpt lat="44.6155" lon="0.84503">
        <ele>147.1</ele>
        <time>2022-10-05T14:24:16.367Z</time>
      </trkpt>
      <trkpt lat="44.61583" lon="0.84533">
        <ele>145</ele>
        <time>2022-10-05T14:24:19.900Z</time>
      </trkpt>
      <trkpt lat="44.61609" lon="0.84545">
        <ele>143.2</ele>
        <time>2022-10-05T14:24:22.127Z</time>
      </trkpt>
      <trkpt lat="44.6166" lon="0.84549">
        <ele>139.1</ele>
        <time>2022-10-05T14:24:26.635Z</time>
      </trkpt>
      <trkpt lat="44.61674" lon="0.84542">
        <ele>138.5</ele>
        <time>2022-10-05T14:24:28.135Z</time>
      </trkpt>
      <trkpt lat="44.61694" lon="0.84522">
        <ele>137</ele>
        <time>2022-10-05T14:24:30.207Z</time>
      </trkpt>
      <trkpt lat="44.61865" lon="0.84331">
        <ele>129.3</ele>
        <time>2022-10-05T14:24:53.390Z</time>
      </trkpt>
      <trkpt lat="44.61909" lon="0.84263">
        <ele>128.6</ele>
        <time>2022-10-05T14:25:02.574Z</time>
      </trkpt>
      <trkpt lat="44.61938" lon="0.84234">
        <ele>129.2</ele>
        <time>2022-10-05T14:25:10.019Z</time>
      </trkpt>
      <trkpt lat="44.61952" lon="0.84233">
        <ele>129.2</ele>
        <time>2022-10-05T14:25:12.498Z</time>
      </trkpt>
      <trkpt lat="44.61965" lon="0.84242">
        <ele>129</ele>
        <time>2022-10-05T14:25:14.453Z</time>
      </trkpt>
      <trkpt lat="44.62" lon="0.84275">
        <ele>127.8</ele>
        <time>2022-10-05T14:25:19.249Z</time>
      </trkpt>
      <trkpt lat="44.62027" lon="0.84294">
        <ele>125.7</ele>
        <time>2022-10-05T14:25:21.914Z</time>
      </trkpt>
      <trkpt lat="44.62048" lon="0.84297">
        <ele>125</ele>
        <time>2022-10-05T14:25:24.202Z</time>
      </trkpt>
      <trkpt lat="44.62055" lon="0.84298">
        <ele>124.7</ele>
        <time>2022-10-05T14:25:24.897Z</time>
      </trkpt>
      <trkpt lat="44.62062" lon="0.843">
        <ele>124.8</ele>
        <time>2022-10-05T14:25:26.346Z</time>
      </trkpt>
      <trkpt lat="44.62086" lon="0.84305">
        <ele>125.1</ele>
        <time>2022-10-05T14:25:31.185Z</time>
      </trkpt>
      <trkpt lat="44.62135" lon="0.84321">
        <ele>128.8</ele>
        <time>2022-10-05T14:25:49.580Z</time>
      </trkpt>
      <trkpt lat="44.6221" lon="0.84368">
        <ele>136.4</ele>
        <time>2022-10-05T14:26:24.790Z</time>
      </trkpt>
      <trkpt lat="44.62248" lon="0.84367">
        <ele>137.9</ele>
        <time>2022-10-05T14:26:35.317Z</time>
      </trkpt>
      <trkpt lat="44.62269" lon="0.84376">
        <ele>139.7</ele>
        <time>2022-10-05T14:26:43.906Z</time>
      </trkpt>
      <trkpt lat="44.62302" lon="0.84398">
        <ele>141.2</ele>
        <time>2022-10-05T14:26:54.261Z</time>
      </trkpt>
      <trkpt lat="44.62313" lon="0.84401">
        <ele>141.6</ele>
        <time>2022-10-05T14:26:57.205Z</time>
      </trkpt>
      <trkpt lat="44.62316" lon="0.84423">
        <ele>143.5</ele>
        <time>2022-10-05T14:27:06.222Z</time>
      </trkpt>
      <trkpt lat="44.62315" lon="0.84446">
        <ele>145.1</ele>
        <time>2022-10-05T14:27:13.589Z</time>
      </trkpt>
      <trkpt lat="44.62307" lon="0.84474">
        <ele>147</ele>
        <time>2022-10-05T14:27:22.468Z</time>
      </trkpt>
      <trkpt lat="44.62302" lon="0.8449">
        <ele>147.8</ele>
        <time>2022-10-05T14:27:26.713Z</time>
      </trkpt>
      <trkpt lat="44.62295" lon="0.8451">
        <ele>149.1</ele>
        <time>2022-10-05T14:27:32.917Z</time>
      </trkpt>
      <trkpt lat="44.62288" lon="0.84545">
        <ele>150.9</ele>
        <time>2022-10-05T14:27:42.095Z</time>
      </trkpt>
      <trkpt lat="44.62288" lon="0.84579">
        <ele>151.6</ele>
        <time>2022-10-05T14:27:47.917Z</time>
      </trkpt>
      <trkpt lat="44.62293" lon="0.84608">
        <ele>151.9</ele>
        <time>2022-10-05T14:27:52.231Z</time>
      </trkpt>
      <trkpt lat="44.62315" lon="0.84664">
        <ele>153.2</ele>
        <time>2022-10-05T14:28:03.135Z</time>
      </trkpt>
      <trkpt lat="44.62328" lon="0.84705">
        <ele>154.6</ele>
        <time>2022-10-05T14:28:12.573Z</time>
      </trkpt>
      <trkpt lat="44.62339" lon="0.84757">
        <ele>155.8</ele>
        <time>2022-10-05T14:28:22.119Z</time>
      </trkpt>
      <trkpt lat="44.62371" lon="0.84858">
        <ele>160.3</ele>
        <time>2022-10-05T14:28:47.654Z</time>
      </trkpt>
      <trkpt lat="44.6242" lon="0.84997">
        <ele>166.1</ele>
        <time>2022-10-05T14:29:22.370Z</time>
      </trkpt>
      <trkpt lat="44.62431" lon="0.85021">
        <ele>165</ele>
        <time>2022-10-05T14:29:24.185Z</time>
      </trkpt>
      <trkpt lat="44.62446" lon="0.85023">
        <ele>165.4</ele>
        <time>2022-10-05T14:29:27.706Z</time>
      </trkpt>
      <trkpt lat="44.62528" lon="0.8504">
        <ele>169</ele>
        <time>2022-10-05T14:29:52.049Z</time>
      </trkpt>
      <trkpt lat="44.62629" lon="0.85088">
        <ele>169.8</ele>
        <time>2022-10-05T14:30:12.296Z</time>
      </trkpt>
      <trkpt lat="44.62641" lon="0.85091">
        <ele>170.2</ele>
        <time>2022-10-05T14:30:15.378Z</time>
      </trkpt>
      <trkpt lat="44.62686" lon="0.85105">
        <ele>173.7</ele>
        <time>2022-10-05T14:30:32.549Z</time>
      </trkpt>
      <trkpt lat="44.62746" lon="0.85115">
        <ele>176.7</ele>
        <time>2022-10-05T14:30:51.191Z</time>
      </trkpt>
      <trkpt lat="44.62767" lon="0.85126">
        <ele>177.9</ele>
        <time>2022-10-05T14:30:58.286Z</time>
      </trkpt>
      <trkpt lat="44.62808" lon="0.85153">
        <ele>179</ele>
        <time>2022-10-05T14:31:08.585Z</time>
      </trkpt>
      <trkpt lat="44.62955" lon="0.85207">
        <ele>182.8</ele>
        <time>2022-10-05T14:31:43.441Z</time>
      </trkpt>
      <trkpt lat="44.63049" lon="0.85246">
        <ele>182.6</ele>
        <time>2022-10-05T14:32:00.249Z</time>
      </trkpt>
      <trkpt lat="44.63078" lon="0.85261">
        <ele>182.9</ele>
        <time>2022-10-05T14:32:06.247Z</time>
      </trkpt>
      <trkpt lat="44.63188" lon="0.85384">
        <ele>186.9</ele>
        <time>2022-10-05T14:32:39.872Z</time>
      </trkpt>
      <trkpt lat="44.63221" lon="0.85407">
        <ele>189</ele>
        <time>2022-10-05T14:32:51.811Z</time>
      </trkpt>
      <trkpt lat="44.6328" lon="0.85441">
        <ele>194.8</ele>
        <time>2022-10-05T14:33:18.762Z</time>
      </trkpt>
      <trkpt lat="44.63335" lon="0.8547">
        <ele>195.9</ele>
        <time>2022-10-05T14:33:31.302Z</time>
      </trkpt>
      <trkpt lat="44.63369" lon="0.85491">
        <ele>193.7</ele>
        <time>2022-10-05T14:33:34.484Z</time>
      </trkpt>
      <trkpt lat="44.63433" lon="0.85518">
        <ele>190.4</ele>
        <time>2022-10-05T14:33:40.700Z</time>
      </trkpt>
      <trkpt lat="44.63456" lon="0.85533">
        <ele>189.6</ele>
        <time>2022-10-05T14:33:43.494Z</time>
      </trkpt>
      <trkpt lat="44.63478" lon="0.85538">
        <ele>188.9</ele>
        <time>2022-10-05T14:33:45.953Z</time>
      </trkpt>
      <trkpt lat="44.63511" lon="0.85549">
        <ele>188.2</ele>
        <time>2022-10-05T14:33:50.164Z</time>
      </trkpt>
      <trkpt lat="44.63526" lon="0.8556">
        <ele>187.8</ele>
        <time>2022-10-05T14:33:52.193Z</time>
      </trkpt>
      <trkpt lat="44.63593" lon="0.85628">
        <ele>182.1</ele>
        <time>2022-10-05T14:33:59.487Z</time>
      </trkpt>
      <trkpt lat="44.63628" lon="0.85651">
        <ele>177.9</ele>
        <time>2022-10-05T14:34:02.897Z</time>
      </trkpt>
      <trkpt lat="44.6366" lon="0.85662">
        <ele>174.8</ele>
        <time>2022-10-05T14:34:05.804Z</time>
      </trkpt>
      <trkpt lat="44.63688" lon="0.85668">
        <ele>172.4</ele>
        <time>2022-10-05T14:34:08.304Z</time>
      </trkpt>
      <trkpt lat="44.63715" lon="0.85702">
        <ele>172</ele>
        <time>2022-10-05T14:34:13.372Z</time>
      </trkpt>
      <trkpt lat="44.63737" lon="0.85703">
        <ele>172.8</ele>
        <time>2022-10-05T14:34:19.207Z</time>
      </trkpt>
      <trkpt lat="44.6376" lon="0.85742">
        <ele>175.3</ele>
        <time>2022-10-05T14:34:31.972Z</time>
      </trkpt>
      <trkpt lat="44.63776" lon="0.85777">
        <ele>175.9</ele>
        <time>2022-10-05T14:34:38.401Z</time>
      </trkpt>
      <trkpt lat="44.63793" lon="0.8579">
        <ele>176.4</ele>
        <time>2022-10-05T14:34:42.884Z</time>
      </trkpt>
      <trkpt lat="44.63806" lon="0.85812">
        <ele>177</ele>
        <time>2022-10-05T14:34:47.815Z</time>
      </trkpt>
      <trkpt lat="44.63846" lon="0.85859">
        <ele>179</ele>
        <time>2022-10-05T14:35:02.030Z</time>
      </trkpt>
      <trkpt lat="44.63855" lon="0.85877">
        <ele>179.6</ele>
        <time>2022-10-05T14:35:06.296Z</time>
      </trkpt>
      <trkpt lat="44.63871" lon="0.85893">
        <ele>179.6</ele>
        <time>2022-10-05T14:35:09.769Z</time>
      </trkpt>
      <trkpt lat="44.63885" lon="0.85901">
        <ele>179.1</ele>
        <time>2022-10-05T14:35:11.408Z</time>
      </trkpt>
      <trkpt lat="44.63984" lon="0.85922">
        <ele>178.6</ele>
        <time>2022-10-05T14:35:27.856Z</time>
      </trkpt>
      <trkpt lat="44.63991" lon="0.85926">
        <ele>178.3</ele>
        <time>2022-10-05T14:35:28.624Z</time>
      </trkpt>
      <trkpt lat="44.64022" lon="0.85895">
        <ele>178</ele>
        <time>2022-10-05T14:35:34.171Z</time>
      </trkpt>
      <trkpt lat="44.64031" lon="0.85886">
        <ele>177.8</ele>
        <time>2022-10-05T14:35:35.585Z</time>
      </trkpt>
      <trkpt lat="44.64023" lon="0.85917">
        <ele>178</ele>
        <time>2022-10-05T14:35:40.086Z</time>
      </trkpt>
      <trkpt lat="44.64024" lon="0.8594">
        <ele>178</ele>
        <time>2022-10-05T14:35:42.985Z</time>
      </trkpt>
      <trkpt lat="44.64032" lon="0.8599">
        <ele>178.8</ele>
        <time>2022-10-05T14:35:51.056Z</time>
      </trkpt>
      <trkpt lat="44.64028" lon="0.86035">
        <ele>179</ele>
        <time>2022-10-05T14:35:57.106Z</time>
      </trkpt>
      <trkpt lat="44.64022" lon="0.86076">
        <ele>179.8</ele>
        <time>2022-10-05T14:36:04.092Z</time>
      </trkpt>
      <trkpt lat="44.6399" lon="0.86302">
        <ele>188.7</ele>
        <time>2022-10-05T14:36:56.257Z</time>
      </trkpt>
      <trkpt lat="44.63984" lon="0.86445">
        <ele>186.6</ele>
        <time>2022-10-05T14:37:08.918Z</time>
      </trkpt>
      <trkpt lat="44.63998" lon="0.8658">
        <ele>187</ele>
        <time>2022-10-05T14:37:26.758Z</time>
      </trkpt>
      <trkpt lat="44.64001" lon="0.8659">
        <ele>187.2</ele>
        <time>2022-10-05T14:37:28.549Z</time>
        <extensions>
          <visugpx:TrkExtension xmlns:visugpx="https://www.visugpx.com/editgpx/">
            <visugpx:node>18</visugpx:node>
            </visugpx:TrkExtension>
        </extensions>
      </trkpt>
      <trkpt lat="44.64019" lon="0.8666">
        <ele>189.8</ele>
        <time>2022-10-05T14:37:44.829Z</time>
      </trkpt>
      <trkpt lat="44.64017" lon="0.86661">
        <ele>189.8</ele>
        <time>2022-10-05T14:37:45.204Z</time>
      </trkpt>
      <trkpt lat="44.64023" lon="0.86693">
        <ele>190</ele>
        <time>2022-10-05T14:37:49.720Z</time>
      </trkpt>
      <trkpt lat="44.6403" lon="0.86754">
        <ele>190.3</ele>
        <time>2022-10-05T14:37:58.013Z</time>
      </trkpt>
      <trkpt lat="44.64035" lon="0.86843">
        <ele>192.5</ele>
        <time>2022-10-05T14:38:14.467Z</time>
      </trkpt>
      <trkpt lat="44.64026" lon="0.86962">
        <ele>192.1</ele>
        <time>2022-10-05T14:38:28.515Z</time>
      </trkpt>
      <trkpt lat="44.6402" lon="0.87002">
        <ele>192.3</ele>
        <time>2022-10-05T14:38:34.004Z</time>
      </trkpt>
      <trkpt lat="44.63985" lon="0.87133">
        <ele>193.5</ele>
        <time>2022-10-05T14:38:53.798Z</time>
      </trkpt>
      <trkpt lat="44.63977" lon="0.87154">
        <ele>193.2</ele>
        <time>2022-10-05T14:38:55.977Z</time>
      </trkpt>
      <trkpt lat="44.63963" lon="0.87175">
        <ele>192.8</ele>
        <time>2022-10-05T14:38:58.552Z</time>
      </trkpt>
      <trkpt lat="44.63921" lon="0.8725">
        <ele>190.5</ele>
        <time>2022-10-05T14:39:05.859Z</time>
      </trkpt>
      <trkpt lat="44.63891" lon="0.87304">
        <ele>188.3</ele>
        <time>2022-10-05T14:39:10.569Z</time>
      </trkpt>
      <trkpt lat="44.63874" lon="0.87341">
        <ele>188.2</ele>
        <time>2022-10-05T14:39:15.853Z</time>
      </trkpt>
      <trkpt lat="44.63866" lon="0.8737">
        <ele>187.6</ele>
        <time>2022-10-05T14:39:18.408Z</time>
      </trkpt>
      <trkpt lat="44.63861" lon="0.87401">
        <ele>186.6</ele>
        <time>2022-10-05T14:39:20.612Z</time>
      </trkpt>
      <trkpt lat="44.63866" lon="0.8753">
        <ele>184.9</ele>
        <time>2022-10-05T14:39:32.318Z</time>
      </trkpt>
      <trkpt lat="44.63872" lon="0.87607">
        <ele>184.3</ele>
        <time>2022-10-05T14:39:40.038Z</time>
      </trkpt>
      <trkpt lat="44.63885" lon="0.87654">
        <ele>183.7</ele>
        <time>2022-10-05T14:39:44.706Z</time>
      </trkpt>
      <trkpt lat="44.63901" lon="0.87703">
        <ele>184.4</ele>
        <time>2022-10-05T14:39:52.852Z</time>
      </trkpt>
      <trkpt lat="44.63953" lon="0.87776">
        <ele>186.9</ele>
        <time>2022-10-05T14:40:11.732Z</time>
      </trkpt>
      <trkpt lat="44.63959" lon="0.87793">
        <ele>187.5</ele>
        <time>2022-10-05T14:40:15.759Z</time>
      </trkpt>
      <trkpt lat="44.63966" lon="0.87804">
        <ele>187.6</ele>
        <time>2022-10-05T14:40:17.794Z</time>
      </trkpt>
      <trkpt lat="44.6399" lon="0.87866">
        <ele>188.8</ele>
        <time>2022-10-05T14:40:29.164Z</time>
      </trkpt>
      <trkpt lat="44.64023" lon="0.87938">
        <ele>189</ele>
        <time>2022-10-05T14:40:40.275Z</time>
      </trkpt>
      <trkpt lat="44.64055" lon="0.88016">
        <ele>192.6</ele>
        <time>2022-10-05T14:41:00.924Z</time>
      </trkpt>
      <trkpt lat="44.6406" lon="0.8803">
        <ele>192.9</ele>
        <time>2022-10-05T14:41:03.540Z</time>
      </trkpt>
      <trkpt lat="44.64064" lon="0.88096">
        <ele>189.9</ele>
        <time>2022-10-05T14:41:07.439Z</time>
      </trkpt>
      <trkpt lat="44.64064" lon="0.88121">
        <ele>189</ele>
        <time>2022-10-05T14:41:09.077Z</time>
      </trkpt>
      <trkpt lat="44.64064" lon="0.88143">
        <ele>188.5</ele>
        <time>2022-10-05T14:41:10.794Z</time>
      </trkpt>
      <trkpt lat="44.64064" lon="0.88146">
        <ele>188.5</ele>
        <time>2022-10-05T14:41:11.172Z</time>
      </trkpt>
      <trkpt lat="44.64067" lon="0.88147">
        <ele>188.4</ele>
        <time>2022-10-05T14:41:11.509Z</time>
      </trkpt>
      <trkpt lat="44.64125" lon="0.88198">
        <ele>189.1</ele>
        <time>2022-10-05T14:41:24.859Z</time>
      </trkpt>
      <trkpt lat="44.64272" lon="0.88266">
        <ele>199.9</ele>
        <time>2022-10-05T14:42:19.844Z</time>
      </trkpt>
      <trkpt lat="44.64372" lon="0.88339">
        <ele>206.5</ele>
        <time>2022-10-05T14:42:56.762Z</time>
      </trkpt>
      <trkpt lat="44.64432" lon="0.88377">
        <ele>204.8</ele>
        <time>2022-10-05T14:43:04.468Z</time>
      </trkpt>
      <trkpt lat="44.64478" lon="0.88413">
        <ele>205.7</ele>
        <time>2022-10-05T14:43:15.508Z</time>
      </trkpt>
      <trkpt lat="44.64486" lon="0.8842">
        <ele>205.4</ele>
        <time>2022-10-05T14:43:16.543Z</time>
      </trkpt>
      <trkpt lat="44.64552" lon="0.88513">
        <ele>203</ele>
        <time>2022-10-05T14:43:27.503Z</time>
      </trkpt>
      <trkpt lat="44.64825" lon="0.88554">
        <ele>184.7</ele>
        <time>2022-10-05T14:43:49.702Z</time>
      </trkpt>
      <trkpt lat="44.64859" lon="0.88554">
        <ele>181.4</ele>
        <time>2022-10-05T14:43:52.702Z</time>
      </trkpt>
      <trkpt lat="44.64888" lon="0.88548">
        <ele>178.9</ele>
        <time>2022-10-05T14:43:55.289Z</time>
      </trkpt>
      <trkpt lat="44.64913" lon="0.88542">
        <ele>177.3</ele>
        <time>2022-10-05T14:43:57.397Z</time>
      </trkpt>
      <trkpt lat="44.64949" lon="0.8854">
        <ele>175.5</ele>
        <time>2022-10-05T14:44:00.732Z</time>
      </trkpt>
      <trkpt lat="44.65093" lon="0.88568">
        <ele>188.1</ele>
        <time>2022-10-05T14:44:59.904Z</time>
      </trkpt>
      <trkpt lat="44.6514" lon="0.88589">
        <ele>192.5</ele>
        <time>2022-10-05T14:45:20.429Z</time>
      </trkpt>
      <trkpt lat="44.65163" lon="0.88607">
        <ele>194.8</ele>
        <time>2022-10-05T14:45:31.209Z</time>
      </trkpt>
      <trkpt lat="44.65179" lon="0.88613">
        <ele>196.5</ele>
        <time>2022-10-05T14:45:39.027Z</time>
      </trkpt>
      <trkpt lat="44.65199" lon="0.88613">
        <ele>198.6</ele>
        <time>2022-10-05T14:45:48.696Z</time>
      </trkpt>
      <trkpt lat="44.65217" lon="0.88603">
        <ele>200.4</ele>
        <time>2022-10-05T14:45:57.029Z</time>
      </trkpt>
      <trkpt lat="44.65228" lon="0.88591">
        <ele>201.4</ele>
        <time>2022-10-05T14:46:02.053Z</time>
      </trkpt>
      <trkpt lat="44.65232" lon="0.8858">
        <ele>201.8</ele>
        <time>2022-10-05T14:46:04.693Z</time>
      </trkpt>
      <trkpt lat="44.65238" lon="0.88564">
        <ele>202.4</ele>
        <time>2022-10-05T14:46:08.586Z</time>
      </trkpt>
      <trkpt lat="44.65248" lon="0.88538">
        <ele>202.4</ele>
        <time>2022-10-05T14:46:12.304Z</time>
      </trkpt>
      <trkpt lat="44.65253" lon="0.88533">
        <ele>202.1</ele>
        <time>2022-10-05T14:46:12.878Z</time>
      </trkpt>
      <trkpt lat="44.65249" lon="0.8852">
        <ele>202.3</ele>
        <time>2022-10-05T14:46:15.056Z</time>
      </trkpt>
      <trkpt lat="44.65248" lon="0.88488">
        <ele>203</ele>
        <time>2022-10-05T14:46:20.663Z</time>
      </trkpt>
      <trkpt lat="44.65262" lon="0.88241">
        <ele>201</ele>
        <time>2022-10-05T14:46:45.204Z</time>
      </trkpt>
      <trkpt lat="44.65262" lon="0.88208">
        <ele>201</ele>
        <time>2022-10-05T14:46:49.355Z</time>
      </trkpt>
      <trkpt lat="44.65277" lon="0.88135">
        <ele>201</ele>
        <time>2022-10-05T14:46:58.915Z</time>
      </trkpt>
      <trkpt lat="44.65295" lon="0.88026">
        <ele>200.3</ele>
        <time>2022-10-05T14:47:10.379Z</time>
        <extensions>
          <visugpx:TrkExtension xmlns:visugpx="https://www.visugpx.com/editgpx/">
            <visugpx:node>19</visugpx:node>
            </visugpx:TrkExtension>
        </extensions>
      </trkpt>
      <trkpt lat="44.65296" lon="0.88017">
        <ele>200.1</ele>
        <time>2022-10-05T14:47:11.098Z</time>
      </trkpt>
      <trkpt lat="44.65301" lon="0.87949">
        <ele>199.2</ele>
        <time>2022-10-05T14:47:17.290Z</time>
      </trkpt>
      <trkpt lat="44.65317" lon="0.87855">
        <ele>198.2</ele>
        <time>2022-10-05T14:47:26.479Z</time>
      </trkpt>
      <trkpt lat="44.65336" lon="0.87768">
        <ele>197.8</ele>
        <time>2022-10-05T14:47:36.938Z</time>
      </trkpt>
      <trkpt lat="44.65395" lon="0.87583">
        <ele>197.8</ele>
        <time>2022-10-05T14:48:02.444Z</time>
      </trkpt>
      <trkpt lat="44.65443" lon="0.87486">
        <ele>195.1</ele>
        <time>2022-10-05T14:48:11.650Z</time>
      </trkpt>
      <trkpt lat="44.65464" lon="0.87454">
        <ele>193.6</ele>
        <time>2022-10-05T14:48:14.555Z</time>
      </trkpt>
      <trkpt lat="44.65508" lon="0.87295">
        <ele>190.6</ele>
        <time>2022-10-05T14:48:28.941Z</time>
      </trkpt>
      <trkpt lat="44.65517" lon="0.87268">
        <ele>189.4</ele>
        <time>2022-10-05T14:48:30.798Z</time>
      </trkpt>
      <trkpt lat="44.65537" lon="0.87224">
        <ele>186.7</ele>
        <time>2022-10-05T14:48:34.075Z</time>
      </trkpt>
      <trkpt lat="44.65574" lon="0.87177">
        <ele>183.7</ele>
        <time>2022-10-05T14:48:38.316Z</time>
      </trkpt>
      <trkpt lat="44.65588" lon="0.87154">
        <ele>182.3</ele>
        <time>2022-10-05T14:48:40.079Z</time>
      </trkpt>
      <trkpt lat="44.65591" lon="0.87149">
        <ele>181.8</ele>
        <time>2022-10-05T14:48:40.490Z</time>
      </trkpt>
      <trkpt lat="44.65607" lon="0.87176">
        <ele>180.4</ele>
        <time>2022-10-05T14:48:42.688Z</time>
      </trkpt>
      <trkpt lat="44.65625" lon="0.8723">
        <ele>178.9</ele>
        <time>2022-10-05T14:48:47.185Z</time>
      </trkpt>
      <trkpt lat="44.65669" lon="0.87292">
        <ele>180.7</ele>
        <time>2022-10-05T14:49:02.168Z</time>
      </trkpt>
      <trkpt lat="44.6573" lon="0.87324">
        <ele>172.2</ele>
        <time>2022-10-05T14:49:07.913Z</time>
      </trkpt>
      <trkpt lat="44.65757" lon="0.87331">
        <ele>169.3</ele>
        <time>2022-10-05T14:49:10.336Z</time>
      </trkpt>
      <trkpt lat="44.65769" lon="0.87337">
        <ele>167.9</ele>
        <time>2022-10-05T14:49:11.460Z</time>
      </trkpt>
      <trkpt lat="44.65773" lon="0.8736">
        <ele>167.5</ele>
        <time>2022-10-05T14:49:13.478Z</time>
      </trkpt>
      <trkpt lat="44.65768" lon="0.87384">
        <ele>167.2</ele>
        <time>2022-10-05T14:49:15.789Z</time>
      </trkpt>
      <trkpt lat="44.65777" lon="0.87403">
        <ele>167.1</ele>
        <time>2022-10-05T14:49:18.413Z</time>
      </trkpt>
      <trkpt lat="44.65818" lon="0.87449">
        <ele>162.6</ele>
        <time>2022-10-05T14:49:23.042Z</time>
      </trkpt>
      <trkpt lat="44.65836" lon="0.87452">
        <ele>159.7</ele>
        <time>2022-10-05T14:49:24.641Z</time>
      </trkpt>
      <trkpt lat="44.65891" lon="0.8745">
        <ele>156.8</ele>
        <time>2022-10-05T14:49:29.616Z</time>
      </trkpt>
      <trkpt lat="44.65914" lon="0.87438">
        <ele>154.9</ele>
        <time>2022-10-05T14:49:31.781Z</time>
      </trkpt>
      <trkpt lat="44.65927" lon="0.87437">
        <ele>154.1</ele>
        <time>2022-10-05T14:49:32.877Z</time>
      </trkpt>
      <trkpt lat="44.65945" lon="0.87446">
        <ele>152.8</ele>
        <time>2022-10-05T14:49:34.563Z</time>
      </trkpt>
      <trkpt lat="44.65983" lon="0.87486">
        <ele>147.5</ele>
        <time>2022-10-05T14:49:38.752Z</time>
      </trkpt>
      <trkpt lat="44.66038" lon="0.87517">
        <ele>141.9</ele>
        <time>2022-10-05T14:49:43.981Z</time>
      </trkpt>
      <trkpt lat="44.66075" lon="0.87535">
        <ele>135.6</ele>
        <time>2022-10-05T14:49:47.436Z</time>
      </trkpt>
      <trkpt lat="44.66085" lon="0.87526">
        <ele>135.4</ele>
        <time>2022-10-05T14:49:48.979Z</time>
      </trkpt>
      <trkpt lat="44.66097" lon="0.87518">
        <ele>136.1</ele>
        <time>2022-10-05T14:49:53.160Z</time>
      </trkpt>
      <trkpt lat="44.6611" lon="0.87513">
        <ele>135.3</ele>
        <time>2022-10-05T14:49:54.313Z</time>
      </trkpt>
      <trkpt lat="44.66125" lon="0.87515">
        <ele>133.4</ele>
        <time>2022-10-05T14:49:55.643Z</time>
      </trkpt>
      <trkpt lat="44.66153" lon="0.8754">
        <ele>131.9</ele>
        <time>2022-10-05T14:49:58.845Z</time>
      </trkpt>
      <trkpt lat="44.66168" lon="0.87545">
        <ele>131.6</ele>
        <time>2022-10-05T14:50:00.786Z</time>
      </trkpt>
      <trkpt lat="44.66183" lon="0.87547">
        <ele>131.9</ele>
        <time>2022-10-05T14:50:04.045Z</time>
      </trkpt>
      <trkpt lat="44.66242" lon="0.87536">
        <ele>130.9</ele>
        <time>2022-10-05T14:50:11.780Z</time>
      </trkpt>
      <trkpt lat="44.6626" lon="0.8753">
        <ele>130.9</ele>
        <time>2022-10-05T14:50:15.051Z</time>
      </trkpt>
      <trkpt lat="44.66274" lon="0.87518">
        <ele>130.6</ele>
        <time>2022-10-05T14:50:17.144Z</time>
      </trkpt>
      <trkpt lat="44.66289" lon="0.87503">
        <ele>130.1</ele>
        <time>2022-10-05T14:50:19.268Z</time>
        <extensions>
          <visugpx:TrkExtension xmlns:visugpx="https://www.visugpx.com/editgpx/">
            <visugpx:node>20</visugpx:node>
            </visugpx:TrkExtension>
        </extensions>
      </trkpt>
      <trkpt lat="44.66333" lon="0.87455">
        <ele>133.5</ele>
        <time>2022-10-05T14:50:37.834Z</time>
      </trkpt>
      <trkpt lat="44.66295" lon="0.87417">
        <ele>133.4</ele>
        <time>2022-10-05T14:50:45.819Z</time>
      </trkpt>
      <trkpt lat="44.66284" lon="0.87407">
        <ele>133.1</ele>
        <time>2022-10-05T14:50:47.403Z</time>
      </trkpt>
      <trkpt lat="44.66262" lon="0.87365">
        <ele>133.9</ele>
        <time>2022-10-05T14:50:55.579Z</time>
      </trkpt>
      <trkpt lat="44.66248" lon="0.8731">
        <ele>134.4</ele>
        <time>2022-10-05T14:51:03.838Z</time>
      </trkpt>
      <trkpt lat="44.66253" lon="0.87278">
        <ele>136.2</ele>
        <time>2022-10-05T14:51:12.609Z</time>
      </trkpt>
      <trkpt lat="44.66264" lon="0.87251">
        <ele>138.5</ele>
        <time>2022-10-05T14:51:23.192Z</time>
      </trkpt>
      <trkpt lat="44.6628" lon="0.87221">
        <ele>140.3</ele>
        <time>2022-10-05T14:51:32.507Z</time>
      </trkpt>
      <trkpt lat="44.66307" lon="0.87184">
        <ele>144.1</ele>
        <time>2022-10-05T14:51:49.981Z</time>
      </trkpt>
      <trkpt lat="44.66326" lon="0.87147">
        <ele>147.7</ele>
        <time>2022-10-05T14:52:06.684Z</time>
      </trkpt>
      <trkpt lat="44.66346" lon="0.87079">
        <ele>153.4</ele>
        <time>2022-10-05T14:52:33.042Z</time>
      </trkpt>
      <trkpt lat="44.6636" lon="0.87">
        <ele>159.8</ele>
        <time>2022-10-05T14:53:02.716Z</time>
      </trkpt>
      <trkpt lat="44.66369" lon="0.86958">
        <ele>160.6</ele>
        <time>2022-10-05T14:53:09.928Z</time>
      </trkpt>
      <trkpt lat="44.664" lon="0.86906">
        <ele>161</ele>
        <time>2022-10-05T14:53:19.163Z</time>
      </trkpt>
      <trkpt lat="44.66446" lon="0.86853">
        <ele>158.7</ele>
        <time>2022-10-05T14:53:25.266Z</time>
      </trkpt>
      <trkpt lat="44.66485" lon="0.86813">
        <ele>158.9</ele>
        <time>2022-10-05T14:53:34.140Z</time>
      </trkpt>
      <trkpt lat="44.66544" lon="0.86759">
        <ele>162.4</ele>
        <time>2022-10-05T14:53:55.870Z</time>
      </trkpt>
      <trkpt lat="44.66599" lon="0.86717">
        <ele>162.6</ele>
        <time>2022-10-05T14:54:07.272Z</time>
      </trkpt>
      <trkpt lat="44.6663" lon="0.8672">
        <ele>163.2</ele>
        <time>2022-10-05T14:54:13.948Z</time>
      </trkpt>
      <trkpt lat="44.66662" lon="0.8675">
        <ele>165.8</ele>
        <time>2022-10-05T14:54:27.392Z</time>
      </trkpt>
      <trkpt lat="44.66682" lon="0.86757">
        <ele>166.6</ele>
        <time>2022-10-05T14:54:33.048Z</time>
      </trkpt>
      <trkpt lat="44.66698" lon="0.86756">
        <ele>166.9</ele>
        <time>2022-10-05T14:54:36.467Z</time>
      </trkpt>
      <trkpt lat="44.66756" lon="0.86667">
        <ele>171.8</ele>
        <time>2022-10-05T14:55:04.305Z</time>
      </trkpt>
      <trkpt lat="44.66823" lon="0.86585">
        <ele>180</ele>
        <time>2022-10-05T14:55:42.310Z</time>
      </trkpt>
      <trkpt lat="44.66854" lon="0.86561">
        <ele>181.8</ele>
        <time>2022-10-05T14:55:53.316Z</time>
      </trkpt>
      <trkpt lat="44.66894" lon="0.86542">
        <ele>184.1</ele>
        <time>2022-10-05T14:56:06.766Z</time>
      </trkpt>
      <trkpt lat="44.66906" lon="0.86533">
        <ele>185.1</ele>
        <time>2022-10-05T14:56:11.738Z</time>
      </trkpt>
      <trkpt lat="44.66954" lon="0.86466">
        <ele>188.4</ele>
        <time>2022-10-05T14:56:32.489Z</time>
      </trkpt>
      <trkpt lat="44.66982" lon="0.8645">
        <ele>190.6</ele>
        <time>2022-10-05T14:56:43.476Z</time>
      </trkpt>
      <trkpt lat="44.66994" lon="0.86446">
        <ele>190.9</ele>
        <time>2022-10-05T14:56:46.282Z</time>
      </trkpt>
      <trkpt lat="44.67014" lon="0.86462">
        <ele>192.4</ele>
        <time>2022-10-05T14:56:54.184Z</time>
      </trkpt>
      <trkpt lat="44.67024" lon="0.86475">
        <ele>193.1</ele>
        <time>2022-10-05T14:56:58.434Z</time>
      </trkpt>
      <trkpt lat="44.67051" lon="0.86471">
        <ele>193.8</ele>
        <time>2022-10-05T14:57:04.720Z</time>
      </trkpt>
      <trkpt lat="44.6707" lon="0.86461">
        <ele>194.1</ele>
        <time>2022-10-05T14:57:08.870Z</time>
      </trkpt>
      <trkpt lat="44.67084" lon="0.86452">
        <ele>194.3</ele>
        <time>2022-10-05T14:57:11.960Z</time>
      </trkpt>
      <trkpt lat="44.67089" lon="0.86443">
        <ele>194.1</ele>
        <time>2022-10-05T14:57:12.924Z</time>
      </trkpt>
      <trkpt lat="44.67115" lon="0.86422">
        <ele>194.4</ele>
        <time>2022-10-05T14:57:18.762Z</time>
      </trkpt>
      <trkpt lat="44.67147" lon="0.86389">
        <ele>195.3</ele>
        <time>2022-10-05T14:57:27.620Z</time>
      </trkpt>
      <trkpt lat="44.67172" lon="0.86346">
        <ele>195.1</ele>
        <time>2022-10-05T14:57:34.102Z</time>
      </trkpt>
      <trkpt lat="44.6719" lon="0.86322">
        <ele>195.7</ele>
        <time>2022-10-05T14:57:39.737Z</time>
      </trkpt>
      <trkpt lat="44.67226" lon="0.86301">
        <ele>197.2</ele>
        <time>2022-10-05T14:57:50.383Z</time>
      </trkpt>
      <trkpt lat="44.67241" lon="0.86295">
        <ele>197.9</ele>
        <time>2022-10-05T14:57:55.049Z</time>
      </trkpt>
      <trkpt lat="44.67227" lon="0.86261">
        <ele>197.8</ele>
        <time>2022-10-05T14:57:59.733Z</time>
        <extensions>
          <visugpx:TrkExtension xmlns:visugpx="https://www.visugpx.com/editgpx/">
            <visugpx:node>21</visugpx:node>
            </visugpx:TrkExtension>
        </extensions>
      </trkpt>
      <trkpt lat="44.67224" lon="0.86253">
        <ele>198</ele>
        <time>2022-10-05T14:58:01.324Z</time>
      </trkpt>
      <trkpt lat="44.67178" lon="0.86154">
        <ele>197.6</ele>
        <time>2022-10-05T14:58:15.186Z</time>
      </trkpt>
      <trkpt lat="44.67137" lon="0.86073">
        <ele>196.3</ele>
        <time>2022-10-05T14:58:24.202Z</time>
      </trkpt>
      <trkpt lat="44.67098" lon="0.86022">
        <ele>197.5</ele>
        <time>2022-10-05T14:58:36.070Z</time>
      </trkpt>
      <trkpt lat="44.6706" lon="0.85978">
        <ele>195.5</ele>
        <time>2022-10-05T14:58:41.028Z</time>
      </trkpt>
      <trkpt lat="44.66948" lon="0.85888">
        <ele>195.2</ele>
        <time>2022-10-05T14:59:03.056Z</time>
      </trkpt>
      <trkpt lat="44.66946" lon="0.85886">
        <ele>195.4</ele>
        <time>2022-10-05T14:59:04.013Z</time>
      </trkpt>
      <trkpt lat="44.66946" lon="0.85866">
        <ele>197.5</ele>
        <time>2022-10-05T14:59:13.715Z</time>
      </trkpt>
      <trkpt lat="44.66947" lon="0.85804">
        <ele>202.3</ele>
        <time>2022-10-05T14:59:35.909Z</time>
      </trkpt>
      <trkpt lat="44.66917" lon="0.85624">
        <ele>199</ele>
        <time>2022-10-05T14:59:51.428Z</time>
      </trkpt>
      <trkpt lat="44.66903" lon="0.85522">
        <ele>197</ele>
        <time>2022-10-05T14:59:59.962Z</time>
      </trkpt>
      <trkpt lat="44.66891" lon="0.85361">
        <ele>194.2</ele>
        <time>2022-10-05T15:00:13.669Z</time>
      </trkpt>
      <trkpt lat="44.66887" lon="0.85296">
        <ele>198.1</ele>
        <time>2022-10-05T15:00:32.138Z</time>
      </trkpt>
      <trkpt lat="44.66884" lon="0.85254">
        <ele>201.2</ele>
        <time>2022-10-05T15:00:46.397Z</time>
      </trkpt>
      <trkpt lat="44.66881" lon="0.85234">
        <ele>203.1</ele>
        <time>2022-10-05T15:00:55.937Z</time>
      </trkpt>
      <trkpt lat="44.66869" lon="0.85208">
        <ele>205.2</ele>
        <time>2022-10-05T15:01:05.628Z</time>
      </trkpt>
      <trkpt lat="44.66853" lon="0.85183">
        <ele>206.6</ele>
        <time>2022-10-05T15:01:13.462Z</time>
      </trkpt>
      <trkpt lat="44.66812" lon="0.85124">
        <ele>208</ele>
        <time>2022-10-05T15:01:26.740Z</time>
      </trkpt>
      <trkpt lat="44.66793" lon="0.85095">
        <ele>207.3</ele>
        <time>2022-10-05T15:01:30.055Z</time>
      </trkpt>
      <trkpt lat="44.66757" lon="0.8503">
        <ele>203.6</ele>
        <time>2022-10-05T15:01:34.921Z</time>
      </trkpt>
      <trkpt lat="44.6674" lon="0.84982">
        <ele>202</ele>
        <time>2022-10-05T15:01:38.715Z</time>
      </trkpt>
      <trkpt lat="44.66725" lon="0.84894">
        <ele>199.1</ele>
        <time>2022-10-05T15:01:44.937Z</time>
      </trkpt>
      <trkpt lat="44.66694" lon="0.84757">
        <ele>199</ele>
        <time>2022-10-05T15:02:02.752Z</time>
      </trkpt>
      <trkpt lat="44.66671" lon="0.84633">
        <ele>200</ele>
        <time>2022-10-05T15:02:20.671Z</time>
      </trkpt>
      <trkpt lat="44.66663" lon="0.84574">
        <ele>200</ele>
        <time>2022-10-05T15:02:28.226Z</time>
      </trkpt>
      <trkpt lat="44.66642" lon="0.84346">
        <ele>199.5</ele>
        <time>2022-10-05T15:02:55.848Z</time>
      </trkpt>
      <trkpt lat="44.66632" lon="0.84246">
        <ele>194.9</ele>
        <time>2022-10-05T15:03:01.772Z</time>
      </trkpt>
      <trkpt lat="44.66627" lon="0.84235">
        <ele>194.5</ele>
        <time>2022-10-05T15:03:02.686Z</time>
      </trkpt>
      <trkpt lat="44.6663" lon="0.84234">
        <ele>194.4</ele>
        <time>2022-10-05T15:03:03.023Z</time>
      </trkpt>
      <trkpt lat="44.66638" lon="0.84229">
        <ele>194.2</ele>
        <time>2022-10-05T15:03:04.083Z</time>
      </trkpt>
      <trkpt lat="44.66696" lon="0.84217">
        <ele>193.8</ele>
        <time>2022-10-05T15:03:13.469Z</time>
      </trkpt>
      <trkpt lat="44.66716" lon="0.84211">
        <ele>193.6</ele>
        <time>2022-10-05T15:03:16.376Z</time>
      </trkpt>
      <trkpt lat="44.66764" lon="0.84215">
        <ele>191</ele>
        <time>2022-10-05T15:03:20.674Z</time>
      </trkpt>
      <trkpt lat="44.66801" lon="0.84233">
        <ele>188.4</ele>
        <time>2022-10-05T15:03:23.845Z</time>
      </trkpt>
      <trkpt lat="44.66883" lon="0.84286">
        <ele>182.4</ele>
        <time>2022-10-05T15:03:31.151Z</time>
      </trkpt>
      <trkpt lat="44.66999" lon="0.84364">
        <ele>181.2</ele>
        <time>2022-10-05T15:03:49.536Z</time>
        <extensions>
          <visugpx:TrkExtension xmlns:visugpx="https://www.visugpx.com/editgpx/">
            <visugpx:node>22</visugpx:node>
            </visugpx:TrkExtension>
        </extensions>
      </trkpt>
      <trkpt lat="44.67011" lon="0.84363">
        <ele>181.5</ele>
        <time>2022-10-05T15:03:52.292Z</time>
      </trkpt>
      <trkpt lat="44.67031" lon="0.84333">
        <ele>181.3</ele>
        <time>2022-10-05T15:03:56.973Z</time>
      </trkpt>
      <trkpt lat="44.67054" lon="0.84288">
        <ele>182.2</ele>
        <time>2022-10-05T15:04:05.786Z</time>
      </trkpt>
      <trkpt lat="44.67071" lon="0.84244">
        <ele>182</ele>
        <time>2022-10-05T15:04:11.585Z</time>
      </trkpt>
      <trkpt lat="44.67072" lon="0.84213">
        <ele>181.1</ele>
        <time>2022-10-05T15:04:13.805Z</time>
      </trkpt>
      <trkpt lat="44.67076" lon="0.84198">
        <ele>180.5</ele>
        <time>2022-10-05T15:04:14.835Z</time>
      </trkpt>
      <trkpt lat="44.67082" lon="0.84189">
        <ele>180.6</ele>
        <time>2022-10-05T15:04:16.567Z</time>
      </trkpt>
      <trkpt lat="44.67117" lon="0.8407">
        <ele>178.8</ele>
        <time>2022-10-05T15:04:28.070Z</time>
      </trkpt>
      <trkpt lat="44.67143" lon="0.84024">
        <ele>178.2</ele>
        <time>2022-10-05T15:04:33.668Z</time>
      </trkpt>
      <trkpt lat="44.67155" lon="0.83977">
        <ele>178.3</ele>
        <time>2022-10-05T15:04:40.114Z</time>
      </trkpt>
      <trkpt lat="44.67154" lon="0.83933">
        <ele>178.6</ele>
        <time>2022-10-05T15:04:46.184Z</time>
      </trkpt>
      <trkpt lat="44.67151" lon="0.83909">
        <ele>178.7</ele>
        <time>2022-10-05T15:04:49.419Z</time>
      </trkpt>
      <trkpt lat="44.67159" lon="0.83889">
        <ele>179.9</ele>
        <time>2022-10-05T15:04:55.386Z</time>
      </trkpt>
      <trkpt lat="44.67184" lon="0.83801">
        <ele>181.9</ele>
        <time>2022-10-05T15:05:11.753Z</time>
      </trkpt>
      <trkpt lat="44.67196" lon="0.83777">
        <ele>183.1</ele>
        <time>2022-10-05T15:05:18.539Z</time>
      </trkpt>
      <trkpt lat="44.67197" lon="0.83761">
        <ele>183.1</ele>
        <time>2022-10-05T15:05:20.559Z</time>
      </trkpt>
      <trkpt lat="44.67191" lon="0.83753">
        <ele>182.5</ele>
        <time>2022-10-05T15:05:21.288Z</time>
      </trkpt>
      <trkpt lat="44.67187" lon="0.83743">
        <ele>181.6</ele>
        <time>2022-10-05T15:05:22.008Z</time>
      </trkpt>
      <trkpt lat="44.67185" lon="0.83729">
        <ele>180.6</ele>
        <time>2022-10-05T15:05:22.905Z</time>
      </trkpt>
      <trkpt lat="44.67184" lon="0.8371">
        <ele>178.8</ele>
        <time>2022-10-05T15:05:24.100Z</time>
      </trkpt>
      <trkpt lat="44.67199" lon="0.83689">
        <ele>179.6</ele>
        <time>2022-10-05T15:05:29.826Z</time>
      </trkpt>
      <trkpt lat="44.67206" lon="0.83669">
        <ele>180.2</ele>
        <time>2022-10-05T15:05:34.117Z</time>
      </trkpt>
      <trkpt lat="44.67216" lon="0.83606">
        <ele>180.7</ele>
        <time>2022-10-05T15:05:43.135Z</time>
      </trkpt>
      <trkpt lat="44.67226" lon="0.83582">
        <ele>180.2</ele>
        <time>2022-10-05T15:05:45.465Z</time>
      </trkpt>
      <trkpt lat="44.67234" lon="0.83552">
        <ele>178.3</ele>
        <time>2022-10-05T15:05:47.476Z</time>
      </trkpt>
      <trkpt lat="44.6724" lon="0.83516">
        <ele>177.6</ele>
        <time>2022-10-05T15:05:50.528Z</time>
      </trkpt>
      <trkpt lat="44.67271" lon="0.83425">
        <ele>176.9</ele>
        <time>2022-10-05T15:06:00.730Z</time>
      </trkpt>
      <trkpt lat="44.67297" lon="0.83347">
        <ele>178</ele>
        <time>2022-10-05T15:06:13.696Z</time>
      </trkpt>
      <trkpt lat="44.67306" lon="0.83295">
        <ele>178.7</ele>
        <time>2022-10-05T15:06:21.791Z</time>
      </trkpt>
      <trkpt lat="44.67314" lon="0.8327">
        <ele>178.4</ele>
        <time>2022-10-05T15:06:24.369Z</time>
      </trkpt>
      <trkpt lat="44.67323" lon="0.83249">
        <ele>179</ele>
        <time>2022-10-05T15:06:28.872Z</time>
      </trkpt>
      <trkpt lat="44.67334" lon="0.83214">
        <ele>178.9</ele>
        <time>2022-10-05T15:06:33.428Z</time>
      </trkpt>
      <trkpt lat="44.6735" lon="0.83187">
        <ele>177.8</ele>
        <time>2022-10-05T15:06:35.867Z</time>
      </trkpt>
      <trkpt lat="44.67415" lon="0.83141">
        <ele>180</ele>
        <time>2022-10-05T15:06:53.665Z</time>
      </trkpt>
      <trkpt lat="44.67442" lon="0.83129">
        <ele>179.8</ele>
        <time>2022-10-05T15:06:58.183Z</time>
        <extensions>
          <visugpx:TrkExtension xmlns:visugpx="https://www.visugpx.com/editgpx/">
            <visugpx:node>23</visugpx:node>
            </visugpx:TrkExtension>
        </extensions>
      </trkpt>
      <trkpt lat="44.67457" lon="0.83131">
        <ele>180.6</ele>
      </trkpt>
      <trkpt lat="44.67467" lon="0.83133">
        <ele>181.2</ele>
      </trkpt>
      <trkpt lat="44.67505" lon="0.83174">
        <ele>183.3</ele>
      </trkpt>
      <trkpt lat="44.67523" lon="0.83186">
        <ele>183.7</ele>
      </trkpt>
      <trkpt lat="44.6755" lon="0.83199">
        <ele>184</ele>
      </trkpt>
      <trkpt lat="44.67561" lon="0.83209">
        <ele>183.8</ele>
      </trkpt>
      <trkpt lat="44.67586" lon="0.83261">
        <ele>182.9</ele>
      </trkpt>
      <trkpt lat="44.67612" lon="0.83293">
        <ele>181.4</ele>
      </trkpt>
      <trkpt lat="44.67627" lon="0.83323">
        <ele>178.9</ele>
      </trkpt>
      <trkpt lat="44.67631" lon="0.83344">
        <ele>177.8</ele>
      </trkpt>
      <trkpt lat="44.6763" lon="0.83363">
        <ele>177.2</ele>
      </trkpt>
      <trkpt lat="44.67622" lon="0.83408">
        <ele>178.3</ele>
      </trkpt>
      <trkpt lat="44.67617" lon="0.83452">
        <ele>177.9</ele>
      </trkpt>
      <trkpt lat="44.67617" lon="0.83479">
        <ele>177.4</ele>
      </trkpt>
      <trkpt lat="44.67634" lon="0.83564">
        <ele>182.3</ele>
      </trkpt>
      <trkpt lat="44.67636" lon="0.83596">
        <ele>183.5</ele>
      </trkpt>
      <trkpt lat="44.67637" lon="0.83669">
        <ele>187.1</ele>
      </trkpt>
      <trkpt lat="44.67635" lon="0.83693">
        <ele>188.8</ele>
      </trkpt>
      <trkpt lat="44.67626" lon="0.8374">
        <ele>189.6</ele>
      </trkpt>
      <trkpt lat="44.67625" lon="0.83763">
        <ele>190</ele>
      </trkpt>
      <trkpt lat="44.67625" lon="0.83771">
        <ele>190</ele>
      </trkpt>
      <trkpt lat="44.67632" lon="0.83803">
        <ele>189.3</ele>
      </trkpt>
      <trkpt lat="44.67662" lon="0.83922">
        <ele>192.2</ele>
      </trkpt>
      <trkpt lat="44.67665" lon="0.83943">
        <ele>192.1</ele>
      </trkpt>
      <trkpt lat="44.67663" lon="0.83965">
        <ele>192.3</ele>
      </trkpt>
      <trkpt lat="44.67657" lon="0.84006">
        <ele>193.3</ele>
      </trkpt>
      <trkpt lat="44.67654" lon="0.84055">
        <ele>195.8</ele>
      </trkpt>
      <trkpt lat="44.67654" lon="0.84097">
        <ele>198.3</ele>
      </trkpt>
      <trkpt lat="44.67651" lon="0.84114">
        <ele>199.3</ele>
      </trkpt>
      <trkpt lat="44.6765" lon="0.84119">
        <ele>199.5</ele>
      </trkpt>
      <trkpt lat="44.67603" lon="0.84268">
        <ele>200.9</ele>
      </trkpt>
      <trkpt lat="44.67576" lon="0.84335">
        <ele>200.2</ele>
      </trkpt>
      <trkpt lat="44.67538" lon="0.84422">
        <ele>198.1</ele>
      </trkpt>
      <trkpt lat="44.67518" lon="0.84488">
        <ele>200.8</ele>
      </trkpt>
      <trkpt lat="44.67498" lon="0.84565">
        <ele>203.9</ele>
      </trkpt>
      <trkpt lat="44.67488" lon="0.84614">
        <ele>205.8</ele>
      </trkpt>
      <trkpt lat="44.67488" lon="0.84683">
        <ele>208.3</ele>
      </trkpt>
      <trkpt lat="44.67495" lon="0.84718">
        <ele>208.7</ele>
      </trkpt>
      <trkpt lat="44.67497" lon="0.8473">
        <ele>208.5</ele>
      </trkpt>
      <trkpt lat="44.67518" lon="0.84797">
        <ele>206.9</ele>
      </trkpt>
      <trkpt lat="44.67553" lon="0.84842">
        <ele>203.6</ele>
      </trkpt>
      <trkpt lat="44.67594" lon="0.84865">
        <ele>201.8</ele>
      </trkpt>
      <trkpt lat="44.67645" lon="0.8487">
        <ele>200.6</ele>
      </trkpt>
      <trkpt lat="44.67659" lon="0.84868">
        <ele>199.7</ele>
      </trkpt>
      <trkpt lat="44.67678" lon="0.84855">
        <ele>198.4</ele>
      </trkpt>
      <trkpt lat="44.67711" lon="0.84822">
        <ele>195.2</ele>
      </trkpt>
      <trkpt lat="44.67738" lon="0.84799">
        <ele>192.8</ele>
      </trkpt>
      <trkpt lat="44.67769" lon="0.84788">
        <ele>191.8</ele>
      </trkpt>
      <trkpt lat="44.6778" lon="0.84784">
        <ele>191.4</ele>
      </trkpt>
      <trkpt lat="44.67853" lon="0.84756">
        <ele>189.4</ele>
      </trkpt>
      <trkpt lat="44.67869" lon="0.8475">
        <ele>189</ele>
      </trkpt>
      <trkpt lat="44.68009" lon="0.8467">
        <ele>186.2</ele>
      </trkpt>
      <trkpt lat="44.68021" lon="0.84658">
        <ele>185.6</ele>
      </trkpt>
      <trkpt lat="44.68033" lon="0.84652">
        <ele>185.8</ele>
      </trkpt>
      <trkpt lat="44.68168" lon="0.84517">
        <ele>189</ele>
      </trkpt>
      <trkpt lat="44.68189" lon="0.84502">
        <ele>188.2</ele>
      </trkpt>
      <trkpt lat="44.68192" lon="0.845">
        <ele>188.1</ele>
      </trkpt>
      <trkpt lat="44.68207" lon="0.84493">
        <ele>188.1</ele>
      </trkpt>
      <trkpt lat="44.68232" lon="0.84491">
        <ele>187.6</ele>
      </trkpt>
      <trkpt lat="44.68326" lon="0.845">
        <ele>184</ele>
      </trkpt>
      <trkpt lat="44.68335" lon="0.84495">
        <ele>183.6</ele>
      </trkpt>
      <trkpt lat="44.68399" lon="0.84481">
        <ele>179.7</ele>
      </trkpt>
      <trkpt lat="44.68462" lon="0.8447">
        <ele>175.7</ele>
      </trkpt>
      <trkpt lat="44.68546" lon="0.84449">
        <ele>170.2</ele>
      </trkpt>
      <trkpt lat="44.68579" lon="0.84452">
        <ele>167.8</ele>
      </trkpt>
      <trkpt lat="44.68603" lon="0.8444">
        <ele>166.2</ele>
      </trkpt>
      <trkpt lat="44.68616" lon="0.8444">
        <ele>166.5</ele>
      </trkpt>
      <trkpt lat="44.68666" lon="0.84422">
        <ele>162</ele>
      </trkpt>
      <trkpt lat="44.68686" lon="0.84421">
        <ele>160.9</ele>
      </trkpt>
      <trkpt lat="44.68749" lon="0.84429">
        <ele>157.9</ele>
      </trkpt>
      <trkpt lat="44.68766" lon="0.84435">
        <ele>156.8</ele>
      </trkpt>
      <trkpt lat="44.68777" lon="0.84442">
        <ele>156</ele>
      </trkpt>
      <trkpt lat="44.68806" lon="0.84455">
        <ele>156</ele>
      </trkpt>
      <trkpt lat="44.68861" lon="0.84456">
        <ele>155.4</ele>
      </trkpt>
      <trkpt lat="44.68916" lon="0.84424">
        <ele>153</ele>
      </trkpt>
      <trkpt lat="44.68978" lon="0.84378">
        <ele>148.2</ele>
      </trkpt>
      <trkpt lat="44.6901" lon="0.84361">
        <ele>146</ele>
      </trkpt>
      <trkpt lat="44.69023" lon="0.84361">
        <ele>146</ele>
      </trkpt>
      <trkpt lat="44.69072" lon="0.8435">
        <ele>150.5</ele>
      </trkpt>
      <trkpt lat="44.69096" lon="0.84336">
        <ele>152.4</ele>
      </trkpt>
      <trkpt lat="44.69153" lon="0.84291">
        <ele>155.5</ele>
        <extensions>
          <visugpx:TrkExtension xmlns:visugpx="https://www.visugpx.com/editgpx/">
            <visugpx:node>24</visugpx:node>
            </visugpx:TrkExtension>
        </extensions>
      </trkpt>
      <trkpt lat="44.69168" lon="0.84573">
        <ele>163.7</ele>
      </trkpt>
      <trkpt lat="44.69173" lon="0.846">
        <ele>165.8</ele>
      </trkpt>
      <trkpt lat="44.69181" lon="0.8463">
        <ele>167.2</ele>
      </trkpt>
      <trkpt lat="44.69226" lon="0.84752">
        <ele>175.9</ele>
      </trkpt>
      <trkpt lat="44.6923" lon="0.84766">
        <ele>178.1</ele>
      </trkpt>
      <trkpt lat="44.69279" lon="0.84866">
        <ele>179.3</ele>
      </trkpt>
      <trkpt lat="44.69283" lon="0.8488">
        <ele>180.2</ele>
      </trkpt>
      <trkpt lat="44.69292" lon="0.84936">
        <ele>184</ele>
      </trkpt>
      <trkpt lat="44.69294" lon="0.84981">
        <ele>187.5</ele>
      </trkpt>
      <trkpt lat="44.69296" lon="0.8499">
        <ele>188.2</ele>
      </trkpt>
      <trkpt lat="44.693" lon="0.84998">
        <ele>188.5</ele>
      </trkpt>
      <trkpt lat="44.69308" lon="0.85002">
        <ele>188.6</ele>
      </trkpt>
      <trkpt lat="44.6931" lon="0.85017">
        <ele>191.5</ele>
      </trkpt>
      <trkpt lat="44.69305" lon="0.85025">
        <ele>192.5</ele>
      </trkpt>
      <trkpt lat="44.69296" lon="0.85053">
        <ele>195.4</ele>
      </trkpt>
      <trkpt lat="44.69293" lon="0.85087">
        <ele>196.7</ele>
      </trkpt>
      <trkpt lat="44.6929" lon="0.85101">
        <ele>197.1</ele>
      </trkpt>
      <trkpt lat="44.69288" lon="0.85111">
        <ele>197.4</ele>
      </trkpt>
      <trkpt lat="44.69281" lon="0.85131">
        <ele>197.7</ele>
      </trkpt>
      <trkpt lat="44.6927" lon="0.85156">
        <ele>198</ele>
      </trkpt>
      <trkpt lat="44.69259" lon="0.85173">
        <ele>198.2</ele>
      </trkpt>
      <trkpt lat="44.69249" lon="0.8518">
        <ele>198.5</ele>
      </trkpt>
      <trkpt lat="44.69248" lon="0.85185">
        <ele>198.6</ele>
      </trkpt>
      <trkpt lat="44.69242" lon="0.85185">
        <ele>198.5</ele>
      </trkpt>
      <trkpt lat="44.69229" lon="0.85189">
        <ele>198.2</ele>
      </trkpt>
      <trkpt lat="44.6918" lon="0.85216">
        <ele>197.3</ele>
      </trkpt>
      <trkpt lat="44.69155" lon="0.85225">
        <ele>196.7</ele>
      </trkpt>
      <trkpt lat="44.69106" lon="0.8523">
        <ele>196</ele>
      </trkpt>
      <trkpt lat="44.69047" lon="0.8524">
        <ele>194.7</ele>
      </trkpt>
      <trkpt lat="44.69033" lon="0.85246">
        <ele>194.2</ele>
      </trkpt>
      <trkpt lat="44.69018" lon="0.85261">
        <ele>193.5</ele>
      </trkpt>
      <trkpt lat="44.6898" lon="0.85311">
        <ele>190.1</ele>
      </trkpt>
      <trkpt lat="44.68967" lon="0.85344">
        <ele>188</ele>
      </trkpt>
      <trkpt lat="44.68955" lon="0.85362">
        <ele>186.6</ele>
      </trkpt>
      <trkpt lat="44.68903" lon="0.85422">
        <ele>187.9</ele>
      </trkpt>
      <trkpt lat="44.68873" lon="0.8545">
        <ele>189.9</ele>
      </trkpt>
      <trkpt lat="44.68832" lon="0.85505">
        <ele>191.1</ele>
      </trkpt>
      <trkpt lat="44.68819" lon="0.85572">
        <ele>189.3</ele>
      </trkpt>
      <trkpt lat="44.6879" lon="0.85625">
        <ele>189.4</ele>
      </trkpt>
      <trkpt lat="44.68739" lon="0.85703">
        <ele>192</ele>
      </trkpt>
      <trkpt lat="44.68721" lon="0.85721">
        <ele>192.6</ele>
      </trkpt>
      <trkpt lat="44.68695" lon="0.85753">
        <ele>191.4</ele>
      </trkpt>
      <trkpt lat="44.68691" lon="0.85766">
        <ele>191.9</ele>
      </trkpt>
      <trkpt lat="44.68686" lon="0.85797">
        <ele>192.8</ele>
      </trkpt>
      <trkpt lat="44.68671" lon="0.85868">
        <ele>193.3</ele>
      </trkpt>
      <trkpt lat="44.68662" lon="0.85886">
        <ele>193.8</ele>
      </trkpt>
      <trkpt lat="44.68656" lon="0.85909">
        <ele>194.1</ele>
      </trkpt>
      <trkpt lat="44.68648" lon="0.85947">
        <ele>194</ele>
      </trkpt>
      <trkpt lat="44.68644" lon="0.85972">
        <ele>193.4</ele>
      </trkpt>
      <trkpt lat="44.68646" lon="0.85993">
        <ele>192.4</ele>
      </trkpt>
      <trkpt lat="44.68653" lon="0.86024">
        <ele>192.6</ele>
      </trkpt>
      <trkpt lat="44.68658" lon="0.86059">
        <ele>193.4</ele>
      </trkpt>
      <trkpt lat="44.68656" lon="0.86089">
        <ele>192.6</ele>
      </trkpt>
      <trkpt lat="44.68655" lon="0.86148">
        <ele>191.9</ele>
      </trkpt>
      <trkpt lat="44.68664" lon="0.86237">
        <ele>193.7</ele>
      </trkpt>
      <trkpt lat="44.68673" lon="0.86269">
        <ele>193.7</ele>
      </trkpt>
      <trkpt lat="44.68681" lon="0.86289">
        <ele>193.8</ele>
      </trkpt>
      <trkpt lat="44.68696" lon="0.86422">
        <ele>196.2</ele>
      </trkpt>
      <trkpt lat="44.68702" lon="0.86485">
        <ele>197.1</ele>
      </trkpt>
      <trkpt lat="44.68711" lon="0.86648">
        <ele>201.4</ele>
      </trkpt>
      <trkpt lat="44.68709" lon="0.8665">
        <ele>201.4</ele>
      </trkpt>
      <trkpt lat="44.68676" lon="0.86662">
        <ele>200.1</ele>
      </trkpt>
      <trkpt lat="44.68638" lon="0.86666">
        <ele>200</ele>
      </trkpt>
      <trkpt lat="44.68607" lon="0.86653">
        <ele>199.6</ele>
      </trkpt>
      <trkpt lat="44.6857" lon="0.86623">
        <ele>200.3</ele>
      </trkpt>
      <trkpt lat="44.68552" lon="0.86604">
        <ele>200</ele>
      </trkpt>
      <trkpt lat="44.68521" lon="0.86598">
        <ele>201.4</ele>
      </trkpt>
      <trkpt lat="44.68436" lon="0.86589">
        <ele>201.3</ele>
      </trkpt>
      <trkpt lat="44.68297" lon="0.86556">
        <ele>197.7</ele>
      </trkpt>
      <trkpt lat="44.68295" lon="0.86556">
        <ele>197.6</ele>
      </trkpt>
      <trkpt lat="44.68296" lon="0.86573">
        <ele>198.5</ele>
      </trkpt>
      <trkpt lat="44.68301" lon="0.86601">
        <ele>199.7</ele>
      </trkpt>
      <trkpt lat="44.68305" lon="0.86617">
        <ele>200.4</ele>
      </trkpt>
      <trkpt lat="44.68311" lon="0.86636">
        <ele>202.2</ele>
        <extensions>
          <visugpx:TrkExtension xmlns:visugpx="https://www.visugpx.com/editgpx/">
            <visugpx:node>25</visugpx:node>
            </visugpx:TrkExtension>
        </extensions>
      </trkpt>
      <trkpt lat="44.68318" lon="0.86663">
        <ele>204.2</ele>
      </trkpt>
      <trkpt lat="44.68332" lon="0.86764">
        <ele>211</ele>
      </trkpt>
      <trkpt lat="44.68341" lon="0.86863">
        <ele>217.3</ele>
      </trkpt>
      <trkpt lat="44.68342" lon="0.86896">
        <ele>218.6</ele>
      </trkpt>
      <trkpt lat="44.68336" lon="0.8698">
        <ele>219.9</ele>
      </trkpt>
      <trkpt lat="44.68338" lon="0.87003">
        <ele>219.9</ele>
      </trkpt>
      <trkpt lat="44.68375" lon="0.87205">
        <ele>223.9</ele>
      </trkpt>
      <trkpt lat="44.68392" lon="0.87305">
        <ele>224.1</ele>
      </trkpt>
      <trkpt lat="44.68398" lon="0.87349">
        <ele>223.1</ele>
      </trkpt>
      <trkpt lat="44.68393" lon="0.87509">
        <ele>223.1</ele>
      </trkpt>
      <trkpt lat="44.68393" lon="0.87558">
        <ele>223</ele>
      </trkpt>
      <trkpt lat="44.68397" lon="0.87607">
        <ele>221.9</ele>
      </trkpt>
      <trkpt lat="44.68397" lon="0.87626">
        <ele>221.6</ele>
      </trkpt>
      <trkpt lat="44.68396" lon="0.8763">
        <ele>221.6</ele>
      </trkpt>
      <trkpt lat="44.68392" lon="0.87673">
        <ele>221.8</ele>
      </trkpt>
      <trkpt lat="44.68381" lon="0.87741">
        <ele>222</ele>
      </trkpt>
      <trkpt lat="44.68363" lon="0.8783">
        <ele>222</ele>
      </trkpt>
      <trkpt lat="44.68351" lon="0.87908">
        <ele>218.9</ele>
      </trkpt>
      <trkpt lat="44.68343" lon="0.87936">
        <ele>216.9</ele>
      </trkpt>
      <trkpt lat="44.68333" lon="0.87961">
        <ele>214.4</ele>
      </trkpt>
      <trkpt lat="44.68332" lon="0.87964">
        <ele>214.1</ele>
      </trkpt>
      <trkpt lat="44.68325" lon="0.87986">
        <ele>213.3</ele>
      </trkpt>
      <trkpt lat="44.6831" lon="0.88039">
        <ele>209.8</ele>
      </trkpt>
      <trkpt lat="44.68279" lon="0.88192">
        <ele>207</ele>
      </trkpt>
      <trkpt lat="44.68271" lon="0.88219">
        <ele>206.5</ele>
      </trkpt>
      <trkpt lat="44.68262" lon="0.88244">
        <ele>206.2</ele>
      </trkpt>
      <trkpt lat="44.68244" lon="0.88284">
        <ele>204.8</ele>
      </trkpt>
      <trkpt lat="44.68227" lon="0.88312">
        <ele>204.4</ele>
        <extensions>
          <visugpx:TrkExtension xmlns:visugpx="https://www.visugpx.com/editgpx/">
            <visugpx:node>26</visugpx:node>
            </visugpx:TrkExtension>
        </extensions>
      </trkpt>
      <trkpt lat="44.68188" lon="0.88377">
        <ele>205</ele>
      </trkpt>
      <trkpt lat="44.68183" lon="0.88395">
        <ele>204.9</ele>
      </trkpt>
      <trkpt lat="44.68183" lon="0.8841">
        <ele>204.6</ele>
      </trkpt>
      <trkpt lat="44.68184" lon="0.88428">
        <ele>204</ele>
      </trkpt>
      <trkpt lat="44.68193" lon="0.88518">
        <ele>200.4</ele>
      </trkpt>
      <trkpt lat="44.68197" lon="0.88552">
        <ele>198.4</ele>
      </trkpt>
      <trkpt lat="44.682" lon="0.88569">
        <ele>197</ele>
      </trkpt>
      <trkpt lat="44.68206" lon="0.88585">
        <ele>196.1</ele>
      </trkpt>
      <trkpt lat="44.68231" lon="0.88641">
        <ele>192.8</ele>
      </trkpt>
      <trkpt lat="44.68236" lon="0.88654">
        <ele>192.4</ele>
      </trkpt>
      <trkpt lat="44.68239" lon="0.88666">
        <ele>191.9</ele>
      </trkpt>
      <trkpt lat="44.6824" lon="0.8869">
        <ele>190.8</ele>
      </trkpt>
      <trkpt lat="44.68232" lon="0.88756">
        <ele>187.9</ele>
      </trkpt>
      <trkpt lat="44.68231" lon="0.88777">
        <ele>186.9</ele>
      </trkpt>
      <trkpt lat="44.68233" lon="0.88794">
        <ele>185.9</ele>
      </trkpt>
      <trkpt lat="44.68236" lon="0.88816">
        <ele>184.9</ele>
      </trkpt>
      <trkpt lat="44.68267" lon="0.88963">
        <ele>176.9</ele>
      </trkpt>
      <trkpt lat="44.68274" lon="0.89005">
        <ele>175.8</ele>
      </trkpt>
      <trkpt lat="44.68276" lon="0.89022">
        <ele>175.9</ele>
      </trkpt>
      <trkpt lat="44.68274" lon="0.89053">
        <ele>175.9</ele>
      </trkpt>
      <trkpt lat="44.68265" lon="0.89085">
        <ele>176.7</ele>
      </trkpt>
      <trkpt lat="44.68258" lon="0.89098">
        <ele>177.3</ele>
      </trkpt>
      <trkpt lat="44.68243" lon="0.8912">
        <ele>180</ele>
      </trkpt>
      <trkpt lat="44.6821" lon="0.89153">
        <ele>181.4</ele>
      </trkpt>
      <trkpt lat="44.68101" lon="0.89253">
        <ele>188.4</ele>
      </trkpt>
      <trkpt lat="44.68099" lon="0.89251">
        <ele>187.9</ele>
      </trkpt>
      <trkpt lat="44.68094" lon="0.89251">
        <ele>187.3</ele>
      </trkpt>
      <trkpt lat="44.68075" lon="0.89253">
        <ele>185.3</ele>
      </trkpt>
      <trkpt lat="44.68046" lon="0.89258">
        <ele>182.2</ele>
      </trkpt>
      <trkpt lat="44.67969" lon="0.89268">
        <ele>180.3</ele>
      </trkpt>
      <trkpt lat="44.67881" lon="0.89274">
        <ele>184.1</ele>
      </trkpt>
      <trkpt lat="44.67816" lon="0.89283">
        <ele>183.3</ele>
      </trkpt>
      <trkpt lat="44.6781" lon="0.89287">
        <ele>183.1</ele>
      </trkpt>
      <trkpt lat="44.67805" lon="0.89284">
        <ele>182.4</ele>
      </trkpt>
      <trkpt lat="44.67773" lon="0.89287">
        <ele>180.1</ele>
      </trkpt>
      <trkpt lat="44.67754" lon="0.89289">
        <ele>177.9</ele>
      </trkpt>
      <trkpt lat="44.67746" lon="0.89291">
        <ele>176.9</ele>
      </trkpt>
      <trkpt lat="44.67709" lon="0.89296">
        <ele>171.9</ele>
      </trkpt>
      <trkpt lat="44.67691" lon="0.89302">
        <ele>169.4</ele>
      </trkpt>
      <trkpt lat="44.67685" lon="0.89308">
        <ele>168.2</ele>
      </trkpt>
      <trkpt lat="44.67682" lon="0.89305">
        <ele>167.8</ele>
      </trkpt>
      <trkpt lat="44.67638" lon="0.89257">
        <ele>160.9</ele>
      </trkpt>
      <trkpt lat="44.6762" lon="0.89246">
        <ele>158.2</ele>
      </trkpt>
      <trkpt lat="44.67617" lon="0.89246">
        <ele>157.7</ele>
      </trkpt>
      <trkpt lat="44.67615" lon="0.8924">
        <ele>157.3</ele>
      </trkpt>
      <trkpt lat="44.67611" lon="0.8924">
        <ele>156.6</ele>
      </trkpt>
      <trkpt lat="44.6759" lon="0.89225">
        <ele>152.9</ele>
      </trkpt>
      <trkpt lat="44.67569" lon="0.89217">
        <ele>149.8</ele>
      </trkpt>
      <trkpt lat="44.67535" lon="0.89213">
        <ele>145.7</ele>
      </trkpt>
      <trkpt lat="44.675" lon="0.8921">
        <ele>144</ele>
        <extensions>
          <visugpx:TrkExtension xmlns:visugpx="https://www.visugpx.com/editgpx/">
            <visugpx:node>27</visugpx:node>
            </visugpx:TrkExtension>
        </extensions>
      </trkpt>
      <trkpt lat="44.67498" lon="0.8921">
        <ele>144</ele>
      </trkpt>
      <trkpt lat="44.67476" lon="0.89204">
        <ele>143.4</ele>
      </trkpt>
      <trkpt lat="44.67464" lon="0.89198">
        <ele>143.1</ele>
      </trkpt>
      <trkpt lat="44.67456" lon="0.89189">
        <ele>143</ele>
      </trkpt>
      <trkpt lat="44.67429" lon="0.89147">
        <ele>143</ele>
      </trkpt>
      <trkpt lat="44.67421" lon="0.89125">
        <ele>142.9</ele>
      </trkpt>
      <trkpt lat="44.67406" lon="0.89103">
        <ele>143.6</ele>
      </trkpt>
      <trkpt lat="44.67355" lon="0.89147">
        <ele>150.4</ele>
      </trkpt>
      <trkpt lat="44.67329" lon="0.89175">
        <ele>157.4</ele>
      </trkpt>
      <trkpt lat="44.67289" lon="0.89223">
        <ele>164.2</ele>
      </trkpt>
      <trkpt lat="44.67274" lon="0.8925">
        <ele>164.7</ele>
      </trkpt>
      <trkpt lat="44.67246" lon="0.89335">
        <ele>169.3</ele>
      </trkpt>
      <trkpt lat="44.67218" lon="0.89412">
        <ele>172.2</ele>
      </trkpt>
      <trkpt lat="44.6719" lon="0.89474">
        <ele>172.7</ele>
      </trkpt>
      <trkpt lat="44.67108" lon="0.89584">
        <ele>176.3</ele>
      </trkpt>
      <trkpt lat="44.6706" lon="0.89639">
        <ele>178.8</ele>
      </trkpt>
      <trkpt lat="44.67025" lon="0.89684">
        <ele>180.8</ele>
      </trkpt>
      <trkpt lat="44.66952" lon="0.89833">
        <ele>187.2</ele>
      </trkpt>
      <trkpt lat="44.6693" lon="0.89885">
        <ele>189.5</ele>
      </trkpt>
      <trkpt lat="44.66908" lon="0.89888">
        <ele>191.3</ele>
      </trkpt>
      <trkpt lat="44.6677" lon="0.89883">
        <ele>199.5</ele>
      </trkpt>
      <trkpt lat="44.66658" lon="0.89932">
        <ele>204.2</ele>
      </trkpt>
      <trkpt lat="44.66595" lon="0.89977">
        <ele>206.5</ele>
      </trkpt>
      <trkpt lat="44.66555" lon="0.89994">
        <ele>207</ele>
      </trkpt>
      <trkpt lat="44.66517" lon="0.90012">
        <ele>206.6</ele>
      </trkpt>
      <trkpt lat="44.66432" lon="0.90045">
        <ele>203.9</ele>
      </trkpt>
      <trkpt lat="44.66413" lon="0.90055">
        <ele>202.7</ele>
      </trkpt>
      <trkpt lat="44.66331" lon="0.90073">
        <ele>196.5</ele>
        <extensions>
          <visugpx:TrkExtension xmlns:visugpx="https://www.visugpx.com/editgpx/">
            <visugpx:node>28</visugpx:node>
            </visugpx:TrkExtension>
        </extensions>
      </trkpt>
      <trkpt lat="44.66292" lon="0.90082">
        <ele>194.5</ele>
      </trkpt>
      <trkpt lat="44.66118" lon="0.90005">
        <ele>195.7</ele>
      </trkpt>
      <trkpt lat="44.65867" lon="0.90016">
        <ele>168</ele>
      </trkpt>
      <trkpt lat="44.65858" lon="0.90011">
        <ele>167</ele>
        <extensions>
          <visugpx:TrkExtension xmlns:visugpx="https://www.visugpx.com/editgpx/">
            <visugpx:node>29</visugpx:node>
            </visugpx:TrkExtension>
        </extensions>
      </trkpt>
      <trkpt lat="44.65839" lon="0.90002">
        <ele>167</ele>
      </trkpt>
      <trkpt lat="44.6583" lon="0.90003">
        <ele>167.5</ele>
      </trkpt>
      <trkpt lat="44.65796" lon="0.8996">
        <ele>172.9</ele>
      </trkpt>
      <trkpt lat="44.65757" lon="0.89922">
        <ele>177.3</ele>
      </trkpt>
      <trkpt lat="44.65485" lon="0.90046">
        <ele>196.6</ele>
      </trkpt>
      <trkpt lat="44.65372" lon="0.90114">
        <ele>199.6</ele>
      </trkpt>
      <trkpt lat="44.65277" lon="0.9014">
        <ele>205.1</ele>
      </trkpt>
      <trkpt lat="44.65116" lon="0.90085">
        <ele>210.6</ele>
      </trkpt>
      <trkpt lat="44.65081" lon="0.89999">
        <ele>212.1</ele>
      </trkpt>
      <trkpt lat="44.65067" lon="0.8997">
        <ele>212</ele>
      </trkpt>
      <trkpt lat="44.6506" lon="0.89975">
        <ele>212.1</ele>
      </trkpt>
      <trkpt lat="44.65048" lon="0.89983">
        <ele>212.4</ele>
      </trkpt>
      <trkpt lat="44.65027" lon="0.90008">
        <ele>213</ele>
      </trkpt>
      <trkpt lat="44.65011" lon="0.90032">
        <ele>213</ele>
      </trkpt>
      <trkpt lat="44.64991" lon="0.90046">
        <ele>213</ele>
      </trkpt>
      <trkpt lat="44.64958" lon="0.90041">
        <ele>212</ele>
      </trkpt>
      <trkpt lat="44.64921" lon="0.90039">
        <ele>209.6</ele>
      </trkpt>
      <trkpt lat="44.64897" lon="0.90029">
        <ele>209.7</ele>
      </trkpt>
      <trkpt lat="44.64869" lon="0.90028">
        <ele>210.7</ele>
      </trkpt>
      <trkpt lat="44.64772" lon="0.90029">
        <ele>216.4</ele>
      </trkpt>
      <trkpt lat="44.64733" lon="0.90034">
        <ele>218.4</ele>
      </trkpt>
      <trkpt lat="44.64721" lon="0.90035">
        <ele>218.6</ele>
      </trkpt>
      <trkpt lat="44.64695" lon="0.90043">
        <ele>219.5</ele>
      </trkpt>
      <trkpt lat="44.64597" lon="0.9009">
        <ele>220.7</ele>
      </trkpt>
      <trkpt lat="44.64565" lon="0.90113">
        <ele>222</ele>
      </trkpt>
      <trkpt lat="44.64523" lon="0.90135">
        <ele>223</ele>
      </trkpt>
      <trkpt lat="44.6449" lon="0.90146">
        <ele>224.9</ele>
      </trkpt>
      <trkpt lat="44.64456" lon="0.90152">
        <ele>226.6</ele>
      </trkpt>
      <trkpt lat="44.64427" lon="0.90156">
        <ele>227.1</ele>
      </trkpt>
      <trkpt lat="44.64423" lon="0.90142">
        <ele>226.4</ele>
      </trkpt>
      <trkpt lat="44.64389" lon="0.90016">
        <ele>226.4</ele>
      </trkpt>
      <trkpt lat="44.64372" lon="0.89979">
        <ele>226.2</ele>
      </trkpt>
      <trkpt lat="44.64341" lon="0.8993">
        <ele>225.8</ele>
      </trkpt>
      <trkpt lat="44.64295" lon="0.89885">
        <ele>225</ele>
      </trkpt>
      <trkpt lat="44.64222" lon="0.89829">
        <ele>229</ele>
      </trkpt>
      <trkpt lat="44.642" lon="0.89802">
        <ele>229</ele>
      </trkpt>
      <trkpt lat="44.64063" lon="0.89569">
        <ele>231.4</ele>
      </trkpt>
      <trkpt lat="44.64051" lon="0.89534">
        <ele>231.7</ele>
      </trkpt>
      <trkpt lat="44.64047" lon="0.89484">
        <ele>231.4</ele>
      </trkpt>
      <trkpt lat="44.64045" lon="0.89455">
        <ele>230.9</ele>
        <extensions>
          <visugpx:TrkExtension xmlns:visugpx="https://www.visugpx.com/editgpx/">
            <visugpx:node>30</visugpx:node>
            </visugpx:TrkExtension>
        </extensions>
      </trkpt>
      <trkpt lat="44.64044" lon="0.89443">
        <ele>230.5</ele>
      </trkpt>
      <trkpt lat="44.64044" lon="0.89435">
        <ele>230.2</ele>
      </trkpt>
      <trkpt lat="44.64047" lon="0.89288">
        <ele>228.9</ele>
      </trkpt>
      <trkpt lat="44.64044" lon="0.89247">
        <ele>228.2</ele>
      </trkpt>
      <trkpt lat="44.64036" lon="0.89215">
        <ele>227.1</ele>
      </trkpt>
      <trkpt lat="44.64004" lon="0.89169">
        <ele>226</ele>
      </trkpt>
      <trkpt lat="44.63808" lon="0.88927">
        <ele>223.5</ele>
      </trkpt>
      <trkpt lat="44.63793" lon="0.88896">
        <ele>224.4</ele>
      </trkpt>
      <trkpt lat="44.63775" lon="0.8884">
        <ele>225.2</ele>
      </trkpt>
      <trkpt lat="44.63727" lon="0.8873">
        <ele>224.7</ele>
      </trkpt>
      <trkpt lat="44.63714" lon="0.88716">
        <ele>224.6</ele>
      </trkpt>
      <trkpt lat="44.63681" lon="0.88689">
        <ele>223.1</ele>
      </trkpt>
      <trkpt lat="44.63639" lon="0.88652">
        <ele>221.9</ele>
      </trkpt>
      <trkpt lat="44.63618" lon="0.88603">
        <ele>220.2</ele>
      </trkpt>
      <trkpt lat="44.63566" lon="0.88461">
        <ele>215.6</ele>
      </trkpt>
      <trkpt lat="44.63563" lon="0.88452">
        <ele>215.3</ele>
      </trkpt>
      <trkpt lat="44.63521" lon="0.88342">
        <ele>211.4</ele>
      </trkpt>
      <trkpt lat="44.63489" lon="0.8826">
        <ele>207</ele>
      </trkpt>
      <trkpt lat="44.63469" lon="0.88212">
        <ele>205.8</ele>
      </trkpt>
      <trkpt lat="44.63422" lon="0.88142">
        <ele>205.4</ele>
      </trkpt>
      <trkpt lat="44.6341" lon="0.88108">
        <ele>204.7</ele>
      </trkpt>
      <trkpt lat="44.63405" lon="0.88073">
        <ele>203.9</ele>
      </trkpt>
      <trkpt lat="44.63405" lon="0.88036">
        <ele>203.6</ele>
      </trkpt>
      <trkpt lat="44.63414" lon="0.87998">
        <ele>203.7</ele>
      </trkpt>
      <trkpt lat="44.63432" lon="0.87961">
        <ele>203.7</ele>
      </trkpt>
      <trkpt lat="44.63491" lon="0.87839">
        <ele>200.2</ele>
      </trkpt>
      <trkpt lat="44.63493" lon="0.8783">
        <ele>199.9</ele>
      </trkpt>
      <trkpt lat="44.63494" lon="0.87827">
        <ele>199.8</ele>
        <extensions>
          <visugpx:TrkExtension xmlns:visugpx="https://www.visugpx.com/editgpx/">
            <visugpx:node>31</visugpx:node>
            </visugpx:TrkExtension>
        </extensions>
      </trkpt>
      <trkpt lat="44.63493" lon="0.8783">
        <ele>199.9</ele>
      </trkpt>
      <trkpt lat="44.63491" lon="0.87839">
        <ele>200.2</ele>
      </trkpt>
      <trkpt lat="44.63472" lon="0.87836">
        <ele>200.1</ele>
      </trkpt>
      <trkpt lat="44.63406" lon="0.87831">
        <ele>202.1</ele>
      </trkpt>
      <trkpt lat="44.63248" lon="0.87823">
        <ele>204.1</ele>
      </trkpt>
      <trkpt lat="44.6322" lon="0.87814">
        <ele>203.6</ele>
      </trkpt>
      <trkpt lat="44.63084" lon="0.87737">
        <ele>208</ele>
      </trkpt>
      <trkpt lat="44.62986" lon="0.87678">
        <ele>202.7</ele>
      </trkpt>
      <trkpt lat="44.62975" lon="0.87688">
        <ele>201.4</ele>
      </trkpt>
      <trkpt lat="44.62977" lon="0.877">
        <ele>201</ele>
      </trkpt>
      <trkpt lat="44.62977" lon="0.87706">
        <ele>200.8</ele>
        <extensions>
          <visugpx:TrkExtension xmlns:visugpx="https://www.visugpx.com/editgpx/">
            <visugpx:node>32</visugpx:node>
            </visugpx:TrkExtension>
        </extensions>
      </trkpt>
      <trkpt lat="44.62977" lon="0.87728">
        <ele>200.3</ele>
      </trkpt>
      <trkpt lat="44.62967" lon="0.87782">
        <ele>200.4</ele>
      </trkpt>
      <trkpt lat="44.62956" lon="0.87822">
        <ele>200.3</ele>
      </trkpt>
      <trkpt lat="44.62949" lon="0.87846">
        <ele>200.4</ele>
      </trkpt>
      <trkpt lat="44.62949" lon="0.87855">
        <ele>201</ele>
      </trkpt>
      <trkpt lat="44.6288" lon="0.87902">
        <ele>199.8</ele>
      </trkpt>
      <trkpt lat="44.62862" lon="0.87887">
        <ele>197.9</ele>
      </trkpt>
      <trkpt lat="44.62845" lon="0.87873">
        <ele>196</ele>
      </trkpt>
      <trkpt lat="44.6282" lon="0.87891">
        <ele>194.5</ele>
      </trkpt>
      <trkpt lat="44.62773" lon="0.87943">
        <ele>188.6</ele>
      </trkpt>
      <trkpt lat="44.62683" lon="0.88056">
        <ele>193.4</ele>
      </trkpt>
      <trkpt lat="44.62665" lon="0.88121">
        <ele>194.8</ele>
      </trkpt>
      <trkpt lat="44.62651" lon="0.88149">
        <ele>192.8</ele>
      </trkpt>
      <trkpt lat="44.62626" lon="0.88173">
        <ele>189.6</ele>
      </trkpt>
      <trkpt lat="44.62607" lon="0.88187">
        <ele>188.1</ele>
      </trkpt>
      <trkpt lat="44.6254" lon="0.8819">
        <ele>183.9</ele>
      </trkpt>
      <trkpt lat="44.62517" lon="0.8821">
        <ele>181.8</ele>
      </trkpt>
      <trkpt lat="44.62499" lon="0.88209">
        <ele>179.8</ele>
      </trkpt>
      <trkpt lat="44.62473" lon="0.88203">
        <ele>175.4</ele>
      </trkpt>
      <trkpt lat="44.62459" lon="0.88224">
        <ele>174.6</ele>
      </trkpt>
      <trkpt lat="44.62453" lon="0.88239">
        <ele>174.1</ele>
      </trkpt>
      <trkpt lat="44.62447" lon="0.88243">
        <ele>173.3</ele>
      </trkpt>
      <trkpt lat="44.62437" lon="0.88242">
        <ele>173</ele>
      </trkpt>
      <trkpt lat="44.6242" lon="0.88231">
        <ele>173</ele>
      </trkpt>
      <trkpt lat="44.62412" lon="0.88221">
        <ele>173</ele>
      </trkpt>
      <trkpt lat="44.62404" lon="0.8819">
        <ele>173.4</ele>
      </trkpt>
      <trkpt lat="44.62397" lon="0.88192">
        <ele>172.8</ele>
      </trkpt>
      <trkpt lat="44.62393" lon="0.88202">
        <ele>172.5</ele>
      </trkpt>
      <trkpt lat="44.62354" lon="0.88274">
        <ele>169.1</ele>
      </trkpt>
      <trkpt lat="44.62347" lon="0.88284">
        <ele>168.8</ele>
      </trkpt>
      <trkpt lat="44.62339" lon="0.8829">
        <ele>167.9</ele>
      </trkpt>
      <trkpt lat="44.6231" lon="0.88295">
        <ele>166.2</ele>
      </trkpt>
      <trkpt lat="44.62282" lon="0.88297">
        <ele>166</ele>
        <extensions>
          <visugpx:TrkExtension xmlns:visugpx="https://www.visugpx.com/editgpx/">
            <visugpx:node>33</visugpx:node>
            </visugpx:TrkExtension>
        </extensions>
      </trkpt>
      <trkpt lat="44.62275" lon="0.88297">
        <ele>166.1</ele>
      </trkpt>
      <trkpt lat="44.62249" lon="0.88312">
        <ele>168.2</ele>
      </trkpt>
      <trkpt lat="44.62231" lon="0.88329">
        <ele>168.7</ele>
      </trkpt>
      <trkpt lat="44.62207" lon="0.8832">
        <ele>167.2</ele>
      </trkpt>
      <trkpt lat="44.62145" lon="0.88319">
        <ele>168</ele>
      </trkpt>
      <trkpt lat="44.62127" lon="0.88285">
        <ele>165.9</ele>
      </trkpt>
      <trkpt lat="44.62022" lon="0.88313">
        <ele>172.5</ele>
      </trkpt>
      <trkpt lat="44.61947" lon="0.88325">
        <ele>178.2</ele>
      </trkpt>
      <trkpt lat="44.61923" lon="0.88338">
        <ele>180.1</ele>
      </trkpt>
      <trkpt lat="44.61882" lon="0.88368">
        <ele>182.9</ele>
      </trkpt>
      <trkpt lat="44.61802" lon="0.88414">
        <ele>190</ele>
      </trkpt>
      <trkpt lat="44.61783" lon="0.88423">
        <ele>192.7</ele>
      </trkpt>
      <trkpt lat="44.61719" lon="0.88463">
        <ele>204.4</ele>
      </trkpt>
      <trkpt lat="44.61709" lon="0.88475">
        <ele>206.6</ele>
        <extensions>
          <visugpx:TrkExtension xmlns:visugpx="https://www.visugpx.com/editgpx/">
            <visugpx:node>34</visugpx:node>
            </visugpx:TrkExtension>
        </extensions>
      </trkpt>
      <trkpt lat="44.61704" lon="0.8848">
        <ele>207.4</ele>
      </trkpt>
      <trkpt lat="44.61682" lon="0.88458">
        <ele>207.9</ele>
      </trkpt>
      <trkpt lat="44.61645" lon="0.88446">
        <ele>208.2</ele>
      </trkpt>
      <trkpt lat="44.61596" lon="0.88444">
        <ele>207.6</ele>
      </trkpt>
      <trkpt lat="44.61532" lon="0.88449">
        <ele>206.3</ele>
      </trkpt>
      <trkpt lat="44.61501" lon="0.88455">
        <ele>206.1</ele>
      </trkpt>
      <trkpt lat="44.61468" lon="0.88472">
        <ele>207</ele>
      </trkpt>
      <trkpt lat="44.61461" lon="0.88467">
        <ele>206.7</ele>
      </trkpt>
      <trkpt lat="44.61454" lon="0.88477">
        <ele>207.2</ele>
      </trkpt>
      <trkpt lat="44.61443" lon="0.88479">
        <ele>207.2</ele>
      </trkpt>
      <trkpt lat="44.61437" lon="0.88476">
        <ele>206.8</ele>
      </trkpt>
      <trkpt lat="44.61417" lon="0.88474">
        <ele>206</ele>
      </trkpt>
      <trkpt lat="44.61402" lon="0.88475">
        <ele>204.4</ele>
      </trkpt>
      <trkpt lat="44.61374" lon="0.88485">
        <ele>201.2</ele>
      </trkpt>
      <trkpt lat="44.61342" lon="0.88512">
        <ele>198.8</ele>
      </trkpt>
      <trkpt lat="44.61327" lon="0.88524">
        <ele>197.6</ele>
      </trkpt>
      <trkpt lat="44.6132" lon="0.88526">
        <ele>197.1</ele>
      </trkpt>
      <trkpt lat="44.61299" lon="0.88544">
        <ele>195.5</ele>
      </trkpt>
      <trkpt lat="44.61283" lon="0.88562">
        <ele>194.6</ele>
      </trkpt>
      <trkpt lat="44.61233" lon="0.88595">
        <ele>193.6</ele>
      </trkpt>
      <trkpt lat="44.61218" lon="0.88609">
        <ele>193</ele>
      </trkpt>
      <trkpt lat="44.61151" lon="0.88663">
        <ele>188.6</ele>
        <extensions>
          <visugpx:TrkExtension xmlns:visugpx="https://www.visugpx.com/editgpx/">
            <visugpx:node>35</visugpx:node>
            </visugpx:TrkExtension>
        </extensions>
      </trkpt>
      <trkpt lat="44.61137" lon="0.88674">
        <ele>187.7</ele>
      </trkpt>
      <trkpt lat="44.61101" lon="0.88637">
        <ele>187</ele>
      </trkpt>
      <trkpt lat="44.61062" lon="0.88606">
        <ele>186.5</ele>
      </trkpt>
      <trkpt lat="44.61049" lon="0.8859">
        <ele>187.8</ele>
      </trkpt>
      <trkpt lat="44.61035" lon="0.88561">
        <ele>190.1</ele>
      </trkpt>
      <trkpt lat="44.61034" lon="0.88559">
        <ele>190.3</ele>
        <extensions>
          <visugpx:TrkExtension xmlns:visugpx="https://www.visugpx.com/editgpx/">
            <visugpx:node>36</visugpx:node>
            </visugpx:TrkExtension>
        </extensions>
      </trkpt>
      <trkpt lat="44.61019" lon="0.88532">
        <ele>192.1</ele>
      </trkpt>
      <trkpt lat="44.61004" lon="0.88512">
        <ele>192.9</ele>
      </trkpt>
      <trkpt lat="44.60998" lon="0.88509">
        <ele>193</ele>
      </trkpt>
      <trkpt lat="44.60975" lon="0.8842">
        <ele>197.8</ele>
      </trkpt>
      <trkpt lat="44.60943" lon="0.88411">
        <ele>198.4</ele>
      </trkpt>
      <trkpt lat="44.60931" lon="0.88377">
        <ele>200.4</ele>
      </trkpt>
      <trkpt lat="44.60844" lon="0.88346">
        <ele>201.6</ele>
      </trkpt>
      <trkpt lat="44.60843" lon="0.88328">
        <ele>200.7</ele>
        <extensions>
          <visugpx:TrkExtension xmlns:visugpx="https://www.visugpx.com/editgpx/">
            <visugpx:node>37</visugpx:node>
            </visugpx:TrkExtension>
        </extensions>
      </trkpt>
      <trkpt lat="44.60841" lon="0.88278">
        <ele>196.8</ele>
      </trkpt>
      <trkpt lat="44.60844" lon="0.88161">
        <ele>193.4</ele>
      </trkpt>
      <trkpt lat="44.60766" lon="0.8816">
        <ele>189.7</ele>
      </trkpt>
      <trkpt lat="44.60709" lon="0.88147">
        <ele>187.7</ele>
      </trkpt>
      <trkpt lat="44.60676" lon="0.88117">
        <ele>186.6</ele>
      </trkpt>
      <trkpt lat="44.60642" lon="0.88048">
        <ele>184</ele>
      </trkpt>
      <trkpt lat="44.60587" lon="0.87893">
        <ele>179.4</ele>
      </trkpt>
      <trkpt lat="44.60562" lon="0.87816">
        <ele>173.5</ele>
      </trkpt>
      <trkpt lat="44.6054" lon="0.87783">
        <ele>172.4</ele>
      </trkpt>
      <trkpt lat="44.60534" lon="0.87779">
        <ele>172.1</ele>
        <extensions>
          <visugpx:TrkExtension xmlns:visugpx="https://www.visugpx.com/editgpx/">
            <visugpx:node>38</visugpx:node>
            </visugpx:TrkExtension>
        </extensions>
      </trkpt>
      <trkpt lat="44.60512" lon="0.87767">
        <ele>172.2</ele>
      </trkpt>
      <trkpt lat="44.60495" lon="0.87747">
        <ele>173.3</ele>
      </trkpt>
      <trkpt lat="44.60488" lon="0.87742">
        <ele>173.6</ele>
      </trkpt>
      <trkpt lat="44.6047" lon="0.87672">
        <ele>173.3</ele>
      </trkpt>
      <trkpt lat="44.60452" lon="0.87615">
        <ele>170.2</ele>
      </trkpt>
      <trkpt lat="44.60436" lon="0.87572">
        <ele>168.1</ele>
      </trkpt>
      <trkpt lat="44.60407" lon="0.87522">
        <ele>165.9</ele>
      </trkpt>
      <trkpt lat="44.60327" lon="0.87407">
        <ele>157.1</ele>
      </trkpt>
      <trkpt lat="44.60312" lon="0.87382">
        <ele>155.6</ele>
        <extensions>
          <visugpx:TrkExtension xmlns:visugpx="https://www.visugpx.com/editgpx/">
            <visugpx:node>39</visugpx:node>
            </visugpx:TrkExtension>
        </extensions>
      </trkpt>
      <trkpt lat="44.60308" lon="0.87377">
        <ele>155.2</ele>
      </trkpt>
      <trkpt lat="44.60264" lon="0.8736">
        <ele>155.9</ele>
      </trkpt>
      <trkpt lat="44.60243" lon="0.87328">
        <ele>155</ele>
      </trkpt>
      <trkpt lat="44.60191" lon="0.87324">
        <ele>156.5</ele>
      </trkpt>
      <trkpt lat="44.60171" lon="0.87316">
        <ele>156.4</ele>
      </trkpt>
      <trkpt lat="44.60142" lon="0.87324">
        <ele>157.1</ele>
      </trkpt>
      <trkpt lat="44.60108" lon="0.87317">
        <ele>156.3</ele>
      </trkpt>
      <trkpt lat="44.60036" lon="0.87298">
        <ele>157.5</ele>
      </trkpt>
      <trkpt lat="44.60018" lon="0.87298">
        <ele>158.7</ele>
      </trkpt>
      <trkpt lat="44.60012" lon="0.87297">
        <ele>159.1</ele>
      </trkpt>
      <trkpt lat="44.60008" lon="0.87296">
        <ele>159.3</ele>
      </trkpt>
      <trkpt lat="44.59977" lon="0.87272">
        <ele>162.4</ele>
      </trkpt>
      <trkpt lat="44.59951" lon="0.87228">
        <ele>164.4</ele>
      </trkpt>
      <trkpt lat="44.59912" lon="0.87193">
        <ele>164.7</ele>
      </trkpt>
      <trkpt lat="44.59892" lon="0.87188">
        <ele>164</ele>
      </trkpt>
      <trkpt lat="44.59877" lon="0.87193">
        <ele>164.8</ele>
      </trkpt>
      <trkpt lat="44.59854" lon="0.87222">
        <ele>165.5</ele>
      </trkpt>
      <trkpt lat="44.59823" lon="0.87279">
        <ele>166.4</ele>
      </trkpt>
      <trkpt lat="44.598" lon="0.87309">
        <ele>167.9</ele>
      </trkpt>
      <trkpt lat="44.59788" lon="0.87324">
        <ele>169.4</ele>
      </trkpt>
      <trkpt lat="44.59723" lon="0.87378">
        <ele>177.3</ele>
      </trkpt>
      <trkpt lat="44.59696" lon="0.87439">
        <ele>179.7</ele>
      </trkpt>
      <trkpt lat="44.59683" lon="0.87467">
        <ele>179.4</ele>
      </trkpt>
      <trkpt lat="44.59605" lon="0.87546">
        <ele>180.9</ele>
      </trkpt>
      <trkpt lat="44.59591" lon="0.87555">
        <ele>181.2</ele>
      </trkpt>
      <trkpt lat="44.59563" lon="0.87575">
        <ele>182.8</ele>
      </trkpt>
      <trkpt lat="44.59553" lon="0.87582">
        <ele>183.2</ele>
      </trkpt>
      <trkpt lat="44.59536" lon="0.87584">
        <ele>184.4</ele>
      </trkpt>
      <trkpt lat="44.59534" lon="0.87583">
        <ele>184.6</ele>
      </trkpt>
      <trkpt lat="44.59516" lon="0.87607">
        <ele>185.1</ele>
      </trkpt>
      <trkpt lat="44.59504" lon="0.87605">
        <ele>185.2</ele>
      </trkpt>
      <trkpt lat="44.59494" lon="0.87595">
        <ele>185.5</ele>
      </trkpt>
      <trkpt lat="44.59489" lon="0.87591">
        <ele>185.4</ele>
      </trkpt>
      <trkpt lat="44.59484" lon="0.8758">
        <ele>185.6</ele>
      </trkpt>
      <trkpt lat="44.59475" lon="0.87549">
        <ele>187.2</ele>
      </trkpt>
      <trkpt lat="44.59467" lon="0.87537">
        <ele>187.2</ele>
      </trkpt>
      <trkpt lat="44.59465" lon="0.87523">
        <ele>187.7</ele>
      </trkpt>
      <trkpt lat="44.59447" lon="0.87498">
        <ele>188.1</ele>
      </trkpt>
      <trkpt lat="44.59419" lon="0.87496">
        <ele>182.6</ele>
      </trkpt>
      <trkpt lat="44.59411" lon="0.87483">
        <ele>181.3</ele>
      </trkpt>
      <trkpt lat="44.59403" lon="0.8748">
        <ele>179.4</ele>
      </trkpt>
      <trkpt lat="44.59389" lon="0.87469">
        <ele>176.1</ele>
      </trkpt>
      <trkpt lat="44.59376" lon="0.87449">
        <ele>173.7</ele>
      </trkpt>
      <trkpt lat="44.59365" lon="0.87441">
        <ele>171</ele>
      </trkpt>
      <trkpt lat="44.59359" lon="0.87429">
        <ele>169.9</ele>
      </trkpt>
      <trkpt lat="44.59357" lon="0.87409">
        <ele>169.7</ele>
      </trkpt>
      <trkpt lat="44.59354" lon="0.87399">
        <ele>169.3</ele>
      </trkpt>
      <trkpt lat="44.59346" lon="0.87385">
        <ele>167.9</ele>
      </trkpt>
      <trkpt lat="44.5934" lon="0.87378">
        <ele>166.5</ele>
      </trkpt>
      <trkpt lat="44.59374" lon="0.87317">
        <ele>163.5</ele>
      </trkpt>
      <trkpt lat="44.59387" lon="0.87304">
        <ele>162.3</ele>
      </trkpt>
      <trkpt lat="44.59401" lon="0.87299">
        <ele>161.1</ele>
      </trkpt>
      <trkpt lat="44.59429" lon="0.8728">
        <ele>156.9</ele>
      </trkpt>
      <trkpt lat="44.59459" lon="0.87239">
        <ele>152.8</ele>
      </trkpt>
      <trkpt lat="44.59465" lon="0.87217">
        <ele>149.8</ele>
      </trkpt>
      <trkpt lat="44.59461" lon="0.8721">
        <ele>148.6</ele>
      </trkpt>
      <trkpt lat="44.59455" lon="0.87202">
        <ele>147.8</ele>
      </trkpt>
      <trkpt lat="44.59455" lon="0.872">
        <ele>147.8</ele>
      </trkpt>
      <trkpt lat="44.59448" lon="0.87199">
        <ele>147.7</ele>
      </trkpt>
      <trkpt lat="44.59438" lon="0.87202">
        <ele>147.9</ele>
      </trkpt>
      <trkpt lat="44.59423" lon="0.87219">
        <ele>147.1</ele>
      </trkpt>
      <trkpt lat="44.59409" lon="0.87224">
        <ele>146.4</ele>
      </trkpt>
      <trkpt lat="44.59394" lon="0.87217">
        <ele>145.9</ele>
      </trkpt>
      <trkpt lat="44.59361" lon="0.87182">
        <ele>147.2</ele>
      </trkpt>
      <trkpt lat="44.59334" lon="0.87169">
        <ele>146</ele>
      </trkpt>
      <trkpt lat="44.5932" lon="0.87167">
        <ele>145.5</ele>
      </trkpt>
      <trkpt lat="44.59314" lon="0.87171">
        <ele>145.3</ele>
      </trkpt>
      <trkpt lat="44.59305" lon="0.87162">
        <ele>147.1</ele>
      </trkpt>
      <trkpt lat="44.59292" lon="0.87165">
        <ele>148.1</ele>
      </trkpt>
      <trkpt lat="44.59282" lon="0.87174">
        <ele>148.1</ele>
      </trkpt>
      <trkpt lat="44.59265" lon="0.87186">
        <ele>150</ele>
      </trkpt>
      <trkpt lat="44.59259" lon="0.87193">
        <ele>150.1</ele>
      </trkpt>
      <trkpt lat="44.59257" lon="0.87199">
        <ele>149.5</ele>
      </trkpt>
      <trkpt lat="44.59236" lon="0.87225">
        <ele>148.7</ele>
      </trkpt>
      <trkpt lat="44.59228" lon="0.87227">
        <ele>150</ele>
      </trkpt>
      <trkpt lat="44.59225" lon="0.8723">
        <ele>150.1</ele>
      </trkpt>
      <trkpt lat="44.59207" lon="0.87239">
        <ele>148.8</ele>
      </trkpt>
      <trkpt lat="44.59178" lon="0.8724">
        <ele>146.7</ele>
      </trkpt>
      <trkpt lat="44.59164" lon="0.87236">
        <ele>145.8</ele>
      </trkpt>
      <trkpt lat="44.5915" lon="0.87222">
        <ele>145.6</ele>
      </trkpt>
      <trkpt lat="44.59145" lon="0.87212">
        <ele>145.6</ele>
      </trkpt>
      <trkpt lat="44.59122" lon="0.87186">
        <ele>146.2</ele>
      </trkpt>
      <trkpt lat="44.59103" lon="0.87175">
        <ele>145.9</ele>
      </trkpt>
      <trkpt lat="44.59096" lon="0.87167">
        <ele>145.8</ele>
        <extensions>
          <visugpx:TrkExtension xmlns:visugpx="https://www.visugpx.com/editgpx/">
            <visugpx:node>40</visugpx:node>
            </visugpx:TrkExtension>
        </extensions>
      </trkpt>
      <trkpt lat="44.59091" lon="0.8716">
        <ele>145.8</ele>
      </trkpt>
      <trkpt lat="44.59087" lon="0.8715">
        <ele>146</ele>
      </trkpt>
      <trkpt lat="44.59077" lon="0.87136">
        <ele>146</ele>
      </trkpt>
      <trkpt lat="44.59066" lon="0.87114">
        <ele>147</ele>
      </trkpt>
      <trkpt lat="44.59065" lon="0.87101">
        <ele>147.7</ele>
      </trkpt>
      <trkpt lat="44.59061" lon="0.87094">
        <ele>146.8</ele>
      </trkpt>
      <trkpt lat="44.59057" lon="0.87049">
        <ele>147.8</ele>
      </trkpt>
      <trkpt lat="44.59048" lon="0.87013">
        <ele>149.5</ele>
      </trkpt>
      <trkpt lat="44.59036" lon="0.87019">
        <ele>151.5</ele>
      </trkpt>
      <trkpt lat="44.59018" lon="0.87042">
        <ele>152</ele>
      </trkpt>
      <trkpt lat="44.58999" lon="0.87052">
        <ele>151.3</ele>
      </trkpt>
      <trkpt lat="44.58977" lon="0.87072">
        <ele>152.3</ele>
      </trkpt>
      <trkpt lat="44.58947" lon="0.87137">
        <ele>147</ele>
      </trkpt>
      <trkpt lat="44.58934" lon="0.87152">
        <ele>146.5</ele>
      </trkpt>
      <trkpt lat="44.589" lon="0.87175">
        <ele>146.5</ele>
      </trkpt>
      <trkpt lat="44.58882" lon="0.87182">
        <ele>147.1</ele>
      </trkpt>
      <trkpt lat="44.58836" lon="0.87216">
        <ele>145.1</ele>
      </trkpt>
      <trkpt lat="44.58826" lon="0.87229">
        <ele>142.8</ele>
      </trkpt>
      <trkpt lat="44.58823" lon="0.87236">
        <ele>142.3</ele>
      </trkpt>
      <trkpt lat="44.58819" lon="0.87236">
        <ele>142</ele>
      </trkpt>
      <trkpt lat="44.58816" lon="0.87229">
        <ele>141.9</ele>
        <extensions>
          <visugpx:TrkExtension xmlns:visugpx="https://www.visugpx.com/editgpx/">
            <visugpx:node>41</visugpx:node>
            </visugpx:TrkExtension>
        </extensions>
      </trkpt>
      <trkpt lat="44.58815" lon="0.87229">
        <ele>141.9</ele>
      </trkpt>
      <trkpt lat="44.58808" lon="0.872">
        <ele>141</ele>
      </trkpt>
      <trkpt lat="44.58792" lon="0.8718">
        <ele>140.9</ele>
      </trkpt>
      <trkpt lat="44.5878" lon="0.87159">
        <ele>140.1</ele>
      </trkpt>
      <trkpt lat="44.58761" lon="0.87141">
        <ele>140.2</ele>
      </trkpt>
      <trkpt lat="44.58734" lon="0.87136">
        <ele>140.1</ele>
      </trkpt>
      <trkpt lat="44.58719" lon="0.87137">
        <ele>140</ele>
      </trkpt>
      <trkpt lat="44.58693" lon="0.87147">
        <ele>139.4</ele>
      </trkpt>
      <trkpt lat="44.58682" lon="0.87155">
        <ele>140.1</ele>
      </trkpt>
      <trkpt lat="44.58668" lon="0.87168">
        <ele>139.1</ele>
      </trkpt>
      <trkpt lat="44.58645" lon="0.872">
        <ele>139.5</ele>
      </trkpt>
      <trkpt lat="44.58631" lon="0.87214">
        <ele>139.6</ele>
      </trkpt>
      <trkpt lat="44.58626" lon="0.87215">
        <ele>139.8</ele>
      </trkpt>
      <trkpt lat="44.586" lon="0.87239">
        <ele>142.6</ele>
      </trkpt>
      <trkpt lat="44.58586" lon="0.87319">
        <ele>144.7</ele>
      </trkpt>
      <trkpt lat="44.58587" lon="0.87339">
        <ele>143.6</ele>
      </trkpt>
      <trkpt lat="44.5859" lon="0.87356">
        <ele>139.5</ele>
      </trkpt>
      <trkpt lat="44.58586" lon="0.87362">
        <ele>138.8</ele>
      </trkpt>
      <trkpt lat="44.58564" lon="0.87364">
        <ele>138.8</ele>
      </trkpt>
      <trkpt lat="44.5854" lon="0.87374">
        <ele>139.3</ele>
      </trkpt>
      <trkpt lat="44.58503" lon="0.87408">
        <ele>137.3</ele>
      </trkpt>
      <trkpt lat="44.5848" lon="0.87411">
        <ele>139.7</ele>
      </trkpt>
      <trkpt lat="44.58428" lon="0.87447">
        <ele>138.7</ele>
      </trkpt>
      <trkpt lat="44.58374" lon="0.87498">
        <ele>137.7</ele>
      </trkpt>
      <trkpt lat="44.58369" lon="0.87507">
        <ele>137.4</ele>
      </trkpt>
      <trkpt lat="44.58343" lon="0.87539">
        <ele>135.3</ele>
      </trkpt>
      <trkpt lat="44.58331" lon="0.87538">
        <ele>135.9</ele>
      </trkpt>
      <trkpt lat="44.58318" lon="0.87526">
        <ele>135.3</ele>
      </trkpt>
      <trkpt lat="44.58319" lon="0.87502">
        <ele>137.2</ele>
      </trkpt>
      <trkpt lat="44.58312" lon="0.87474">
        <ele>134.6</ele>
      </trkpt>
      <trkpt lat="44.5831" lon="0.87445">
        <ele>133.9</ele>
      </trkpt>
      <trkpt lat="44.5829" lon="0.87385">
        <ele>133.9</ele>
      </trkpt>
      <trkpt lat="44.5828" lon="0.87374">
        <ele>135.5</ele>
      </trkpt>
      <trkpt lat="44.58264" lon="0.87376">
        <ele>135.5</ele>
      </trkpt>
      <trkpt lat="44.5823" lon="0.87392">
        <ele>133.3</ele>
      </trkpt>
      <trkpt lat="44.58225" lon="0.87399">
        <ele>133.1</ele>
      </trkpt>
      <trkpt lat="44.58225" lon="0.87398">
        <ele>133.2</ele>
      </trkpt>
      <trkpt lat="44.58234" lon="0.87405">
        <ele>132.5</ele>
        <extensions>
          <visugpx:TrkExtension xmlns:visugpx="https://www.visugpx.com/editgpx/">
            <visugpx:node>42</visugpx:node>
            </visugpx:TrkExtension>
        </extensions>
      </trkpt>
      <trkpt lat="44.58225" lon="0.87398">
        <ele>133.2</ele>
      </trkpt>
      <trkpt lat="44.58217" lon="0.87392">
        <ele>133.8</ele>
      </trkpt>
      <trkpt lat="44.5819" lon="0.87376">
        <ele>136.2</ele>
      </trkpt>
      <trkpt lat="44.58179" lon="0.87342">
        <ele>140.9</ele>
      </trkpt>
      <trkpt lat="44.58171" lon="0.87302">
        <ele>145.3</ele>
      </trkpt>
      <trkpt lat="44.58153" lon="0.87236">
        <ele>154.6</ele>
      </trkpt>
      <trkpt lat="44.58147" lon="0.87202">
        <ele>155.7</ele>
      </trkpt>
      <trkpt lat="44.58149" lon="0.87161">
        <ele>156.3</ele>
      </trkpt>
      <trkpt lat="44.5814" lon="0.87122">
        <ele>155.2</ele>
      </trkpt>
      <trkpt lat="44.58129" lon="0.87011">
        <ele>156</ele>
      </trkpt>
      <trkpt lat="44.58112" lon="0.86978">
        <ele>156.2</ele>
      </trkpt>
      <trkpt lat="44.58084" lon="0.86934">
        <ele>157</ele>
      </trkpt>
      <trkpt lat="44.58065" lon="0.86908">
        <ele>158.8</ele>
      </trkpt>
      <trkpt lat="44.58056" lon="0.86874">
        <ele>158.6</ele>
      </trkpt>
      <trkpt lat="44.5806" lon="0.86846">
        <ele>159.6</ele>
      </trkpt>
      <trkpt lat="44.58096" lon="0.86707">
        <ele>161.3</ele>
      </trkpt>
      <trkpt lat="44.58101" lon="0.86668">
        <ele>160.8</ele>
      </trkpt>
      <trkpt lat="44.58084" lon="0.86587">
        <ele>162.9</ele>
      </trkpt>
      <trkpt lat="44.58075" lon="0.86472">
        <ele>164.8</ele>
      </trkpt>
      <trkpt lat="44.58033" lon="0.8636">
        <ele>167.8</ele>
      </trkpt>
      <trkpt lat="44.57971" lon="0.86228">
        <ele>171.3</ele>
      </trkpt>
      <trkpt lat="44.57947" lon="0.86147">
        <ele>174.1</ele>
      </trkpt>
      <trkpt lat="44.57903" lon="0.86074">
        <ele>175.5</ele>
      </trkpt>
      <trkpt lat="44.57897" lon="0.86009">
        <ele>177.1</ele>
      </trkpt>
      <trkpt lat="44.57865" lon="0.85909">
        <ele>178.1</ele>
      </trkpt>
      <trkpt lat="44.5786" lon="0.85907">
        <ele>178.4</ele>
        <extensions>
          <visugpx:TrkExtension xmlns:visugpx="https://www.visugpx.com/editgpx/">
            <visugpx:node>43</visugpx:node>
            </visugpx:TrkExtension>
        </extensions>
      </trkpt>
      <trkpt lat="44.57847" lon="0.85901">
        <ele>178.8</ele>
      </trkpt>
      <trkpt lat="44.57828" lon="0.85893">
        <ele>178.7</ele>
      </trkpt>
      <trkpt lat="44.57812" lon="0.85871">
        <ele>176.8</ele>
      </trkpt>
      <trkpt lat="44.57795" lon="0.85831">
        <ele>175</ele>
      </trkpt>
      <trkpt lat="44.57778" lon="0.858">
        <ele>173.8</ele>
      </trkpt>
      <trkpt lat="44.57766" lon="0.85768">
        <ele>172.2</ele>
      </trkpt>
      <trkpt lat="44.57726" lon="0.85645">
        <ele>171.6</ele>
      </trkpt>
      <trkpt lat="44.57713" lon="0.85594">
        <ele>172.3</ele>
      </trkpt>
      <trkpt lat="44.57711" lon="0.85569">
        <ele>172.2</ele>
      </trkpt>
      <trkpt lat="44.57711" lon="0.85536">
        <ele>173.6</ele>
      </trkpt>
      <trkpt lat="44.57719" lon="0.8551">
        <ele>173.9</ele>
      </trkpt>
      <trkpt lat="44.57719" lon="0.85489">
        <ele>174.2</ele>
      </trkpt>
      <trkpt lat="44.57713" lon="0.85471">
        <ele>174.6</ele>
      </trkpt>
      <trkpt lat="44.577" lon="0.85456">
        <ele>175.1</ele>
      </trkpt>
      <trkpt lat="44.57683" lon="0.85447">
        <ele>176.3</ele>
      </trkpt>
      <trkpt lat="44.57649" lon="0.85417">
        <ele>180.5</ele>
      </trkpt>
      <trkpt lat="44.57639" lon="0.85445">
        <ele>181</ele>
      </trkpt>
      <trkpt lat="44.57629" lon="0.85468">
        <ele>181.7</ele>
      </trkpt>
      <trkpt lat="44.57604" lon="0.85461">
        <ele>182.5</ele>
      </trkpt>
      <trkpt lat="44.57514" lon="0.85396">
        <ele>174.6</ele>
      </trkpt>
      <trkpt lat="44.57487" lon="0.85363">
        <ele>175.5</ele>
      </trkpt>
      <trkpt lat="44.57431" lon="0.85315">
        <ele>176.5</ele>
      </trkpt>
      <trkpt lat="44.57417" lon="0.85303">
        <ele>177</ele>
      </trkpt>
      <trkpt lat="44.57379" lon="0.8527">
        <ele>177.8</ele>
      </trkpt>
      <trkpt lat="44.57368" lon="0.85258">
        <ele>177.4</ele>
      </trkpt>
      <trkpt lat="44.5732" lon="0.85142">
        <ele>175</ele>
      </trkpt>
      <trkpt lat="44.5728" lon="0.85064">
        <ele>173.3</ele>
      </trkpt>
      <trkpt lat="44.57268" lon="0.85029">
        <ele>172.4</ele>
      </trkpt>
      <trkpt lat="44.57247" lon="0.84951">
        <ele>173.1</ele>
      </trkpt>
      <trkpt lat="44.57245" lon="0.84926">
        <ele>173.8</ele>
        <extensions>
          <visugpx:TrkExtension xmlns:visugpx="https://www.visugpx.com/editgpx/">
            <visugpx:node>44</visugpx:node>
            </visugpx:TrkExtension>
        </extensions>
      </trkpt>
      <trkpt lat="44.57244" lon="0.84918">
        <ele>174.2</ele>
      </trkpt>
      <trkpt lat="44.57245" lon="0.84904">
        <ele>175.1</ele>
      </trkpt>
      <trkpt lat="44.57227" lon="0.84826">
        <ele>177</ele>
      </trkpt>
      <trkpt lat="44.57226" lon="0.8478">
        <ele>177</ele>
      </trkpt>
      <trkpt lat="44.57219" lon="0.84681">
        <ele>175.4</ele>
      </trkpt>
      <trkpt lat="44.57222" lon="0.84637">
        <ele>173.9</ele>
      </trkpt>
      <trkpt lat="44.57212" lon="0.84544">
        <ele>171.3</ele>
      </trkpt>
      <trkpt lat="44.57206" lon="0.84507">
        <ele>171</ele>
      </trkpt>
      <trkpt lat="44.5713" lon="0.8426">
        <ele>160.4</ele>
      </trkpt>
      <trkpt lat="44.57109" lon="0.84184">
        <ele>160.2</ele>
      </trkpt>
      <trkpt lat="44.57095" lon="0.84156">
        <ele>161</ele>
      </trkpt>
      <trkpt lat="44.57076" lon="0.84156">
        <ele>162.2</ele>
      </trkpt>
      <trkpt lat="44.57029" lon="0.84169">
        <ele>163.1</ele>
      </trkpt>
      <trkpt lat="44.56994" lon="0.84176">
        <ele>162</ele>
      </trkpt>
      <trkpt lat="44.56975" lon="0.84173">
        <ele>161.1</ele>
      </trkpt>
      <trkpt lat="44.5696" lon="0.84155">
        <ele>159.9</ele>
      </trkpt>
      <trkpt lat="44.56954" lon="0.84133">
        <ele>159.5</ele>
      </trkpt>
      <trkpt lat="44.56944" lon="0.84096">
        <ele>160.5</ele>
      </trkpt>
      <trkpt lat="44.5693" lon="0.84062">
        <ele>161.6</ele>
      </trkpt>
      <trkpt lat="44.56893" lon="0.83987">
        <ele>162.1</ele>
      </trkpt>
      <trkpt lat="44.5688" lon="0.83951">
        <ele>160.8</ele>
      </trkpt>
      <trkpt lat="44.56876" lon="0.83931">
        <ele>160.1</ele>
      </trkpt>
      <trkpt lat="44.56877" lon="0.83911">
        <ele>159.5</ele>
      </trkpt>
      <trkpt lat="44.56882" lon="0.83874">
        <ele>159.5</ele>
      </trkpt>
      <trkpt lat="44.56888" lon="0.83855">
        <ele>159.9</ele>
      </trkpt>
      <trkpt lat="44.569" lon="0.83827">
        <ele>160.5</ele>
      </trkpt>
      <trkpt lat="44.56908" lon="0.83817">
        <ele>161.1</ele>
      </trkpt>
      <trkpt lat="44.56951" lon="0.83787">
        <ele>163</ele>
      </trkpt>
      <trkpt lat="44.56964" lon="0.83774">
        <ele>163</ele>
      </trkpt>
      <trkpt lat="44.56966" lon="0.83761">
        <ele>163</ele>
      </trkpt>
      <trkpt lat="44.5696" lon="0.83743">
        <ele>162.7</ele>
      </trkpt>
      <trkpt lat="44.56923" lon="0.83666">
        <ele>160</ele>
      </trkpt>
      <trkpt lat="44.56918" lon="0.83652">
        <ele>159.5</ele>
      </trkpt>
      <trkpt lat="44.56918" lon="0.83651">
        <ele>159.5</ele>
        <extensions>
          <visugpx:TrkExtension xmlns:visugpx="https://www.visugpx.com/editgpx/">
            <visugpx:node>45</visugpx:node>
            </visugpx:TrkExtension>
        </extensions>
      </trkpt>
      <trkpt lat="44.56918" lon="0.83643">
        <ele>159.2</ele>
      </trkpt>
      <trkpt lat="44.56905" lon="0.83624">
        <ele>158.6</ele>
      </trkpt>
      <trkpt lat="44.56903" lon="0.83619">
        <ele>158.4</ele>
      </trkpt>
      <trkpt lat="44.56883" lon="0.83582">
        <ele>158.1</ele>
      </trkpt>
      <trkpt lat="44.56862" lon="0.83533">
        <ele>157.1</ele>
      </trkpt>
      <trkpt lat="44.56827" lon="0.83439">
        <ele>155.2</ele>
      </trkpt>
      <trkpt lat="44.56803" lon="0.83385">
        <ele>153.2</ele>
      </trkpt>
      <trkpt lat="44.56741" lon="0.83258">
        <ele>150.7</ele>
      </trkpt>
      <trkpt lat="44.56722" lon="0.83216">
        <ele>150</ele>
      </trkpt>
      <trkpt lat="44.56717" lon="0.83206">
        <ele>150.1</ele>
      </trkpt>
      <trkpt lat="44.56711" lon="0.83194">
        <ele>150.4</ele>
      </trkpt>
      <trkpt lat="44.56651" lon="0.83032">
        <ele>146</ele>
      </trkpt>
      <trkpt lat="44.56634" lon="0.82992">
        <ele>146</ele>
      </trkpt>
      <trkpt lat="44.56623" lon="0.8296">
        <ele>146</ele>
      </trkpt>
      <trkpt lat="44.5662" lon="0.82949">
        <ele>146</ele>
      </trkpt>
      <trkpt lat="44.56609" lon="0.82903">
        <ele>147</ele>
      </trkpt>
      <trkpt lat="44.56605" lon="0.82871">
        <ele>146.9</ele>
      </trkpt>
      <trkpt lat="44.56604" lon="0.8286">
        <ele>146.7</ele>
      </trkpt>
      <trkpt lat="44.56605" lon="0.82839">
        <ele>146.6</ele>
      </trkpt>
      <trkpt lat="44.56605" lon="0.82806">
        <ele>145.8</ele>
      </trkpt>
      <trkpt lat="44.56598" lon="0.82767">
        <ele>146.2</ele>
      </trkpt>
      <trkpt lat="44.5657" lon="0.82624">
        <ele>146.5</ele>
      </trkpt>
      <trkpt lat="44.56555" lon="0.82572">
        <ele>146</ele>
      </trkpt>
      <trkpt lat="44.56539" lon="0.82526">
        <ele>146.4</ele>
      </trkpt>
      <trkpt lat="44.56537" lon="0.82522">
        <ele>146.5</ele>
        <extensions>
          <visugpx:TrkExtension xmlns:visugpx="https://www.visugpx.com/editgpx/">
            <visugpx:node>46</visugpx:node>
            </visugpx:TrkExtension>
        </extensions>
      </trkpt>
      <trkpt lat="44.56536" lon="0.82521">
        <ele>146.5</ele>
      </trkpt>
      <trkpt lat="44.56545" lon="0.82512">
        <ele>146.8</ele>
      </trkpt>
      <trkpt lat="44.56565" lon="0.82473">
        <ele>148</ele>
      </trkpt>
      <trkpt lat="44.56586" lon="0.8242">
        <ele>147.9</ele>
      </trkpt>
      <trkpt lat="44.56602" lon="0.82388">
        <ele>148.3</ele>
      </trkpt>
      <trkpt lat="44.56603" lon="0.82378">
        <ele>148.4</ele>
      </trkpt>
      <trkpt lat="44.56599" lon="0.8237">
        <ele>148.7</ele>
      </trkpt>
      <trkpt lat="44.56573" lon="0.82333">
        <ele>151.4</ele>
      </trkpt>
      <trkpt lat="44.56571" lon="0.82323">
        <ele>151.4</ele>
      </trkpt>
      <trkpt lat="44.56575" lon="0.82299">
        <ele>151.1</ele>
      </trkpt>
      <trkpt lat="44.56587" lon="0.82295">
        <ele>150.5</ele>
      </trkpt>
      <trkpt lat="44.56595" lon="0.82276">
        <ele>149.6</ele>
      </trkpt>
      <trkpt lat="44.56596" lon="0.82229">
        <ele>148.7</ele>
      </trkpt>
      <trkpt lat="44.56603" lon="0.82189">
        <ele>147.6</ele>
      </trkpt>
      <trkpt lat="44.56616" lon="0.82177">
        <ele>146.8</ele>
      </trkpt>
      <trkpt lat="44.56652" lon="0.82154">
        <ele>145.5</ele>
      </trkpt>
      <trkpt lat="44.56702" lon="0.8213">
        <ele>144.3</ele>
      </trkpt>
      <trkpt lat="44.56714" lon="0.82132">
        <ele>144.2</ele>
      </trkpt>
      <trkpt lat="44.56732" lon="0.82156">
        <ele>143</ele>
      </trkpt>
      <trkpt lat="44.56749" lon="0.82161">
        <ele>142.2</ele>
      </trkpt>
      <trkpt lat="44.56782" lon="0.82205">
        <ele>139.7</ele>
      </trkpt>
      <trkpt lat="44.56791" lon="0.82207">
        <ele>139</ele>
      </trkpt>
      <trkpt lat="44.56802" lon="0.82199">
        <ele>138.3</ele>
      </trkpt>
      <trkpt lat="44.56808" lon="0.82185">
        <ele>137.5</ele>
      </trkpt>
      <trkpt lat="44.56811" lon="0.82163">
        <ele>136.9</ele>
      </trkpt>
      <trkpt lat="44.56816" lon="0.82156">
        <ele>136.9</ele>
      </trkpt>
      <trkpt lat="44.56828" lon="0.82152">
        <ele>136.3</ele>
      </trkpt>
      <trkpt lat="44.56842" lon="0.82162">
        <ele>135.7</ele>
      </trkpt>
      <trkpt lat="44.56902" lon="0.82155">
        <ele>134</ele>
      </trkpt>
      <trkpt lat="44.56911" lon="0.82161">
        <ele>134</ele>
      </trkpt>
      <trkpt lat="44.56928" lon="0.82185">
        <ele>135.6</ele>
      </trkpt>
      <trkpt lat="44.56937" lon="0.8219">
        <ele>135.9</ele>
      </trkpt>
      <trkpt lat="44.57002" lon="0.82184">
        <ele>137</ele>
      </trkpt>
      <trkpt lat="44.57012" lon="0.82184">
        <ele>137.3</ele>
      </trkpt>
      <trkpt lat="44.57021" lon="0.8219">
        <ele>137.6</ele>
      </trkpt>
      <trkpt lat="44.57033" lon="0.82182">
        <ele>137.6</ele>
      </trkpt>
      <trkpt lat="44.57038" lon="0.82183">
        <ele>137.6</ele>
      </trkpt>
      <trkpt lat="44.57053" lon="0.82198">
        <ele>138</ele>
      </trkpt>
      <trkpt lat="44.57062" lon="0.82211">
        <ele>137.9</ele>
      </trkpt>
      <trkpt lat="44.57076" lon="0.82242">
        <ele>138.2</ele>
      </trkpt>
      <trkpt lat="44.57083" lon="0.82257">
        <ele>138</ele>
      </trkpt>
      <trkpt lat="44.57108" lon="0.82323">
        <ele>136.1</ele>
      </trkpt>
      <trkpt lat="44.57129" lon="0.82349">
        <ele>134.8</ele>
      </trkpt>
      <trkpt lat="44.57176" lon="0.82388">
        <ele>132.7</ele>
      </trkpt>
      <trkpt lat="44.57222" lon="0.82408">
        <ele>130.3</ele>
      </trkpt>
      <trkpt lat="44.57264" lon="0.82397">
        <ele>129.2</ele>
      </trkpt>
      <trkpt lat="44.57277" lon="0.82397">
        <ele>128.7</ele>
      </trkpt>
      <trkpt lat="44.57295" lon="0.82403">
        <ele>127.9</ele>
      </trkpt>
      <trkpt lat="44.57321" lon="0.82416">
        <ele>126.5</ele>
      </trkpt>
      <trkpt lat="44.57355" lon="0.82423">
        <ele>124.4</ele>
      </trkpt>
      <trkpt lat="44.5739" lon="0.8244">
        <ele>122.1</ele>
      </trkpt>
      <trkpt lat="44.5741" lon="0.82458">
        <ele>120.9</ele>
      </trkpt>
      <trkpt lat="44.5746" lon="0.82486">
        <ele>116.4</ele>
      </trkpt>
      <trkpt lat="44.57504" lon="0.82506">
        <ele>114.9</ele>
      </trkpt>
      <trkpt lat="44.57526" lon="0.82504">
        <ele>114.2</ele>
      </trkpt>
      <trkpt lat="44.57543" lon="0.82515">
        <ele>114</ele>
      </trkpt>
      <trkpt lat="44.57564" lon="0.82567">
        <ele>116.1</ele>
      </trkpt>
      <trkpt lat="44.57581" lon="0.82593">
        <ele>119.9</ele>
      </trkpt>
      <trkpt lat="44.576" lon="0.8264">
        <ele>124.8</ele>
      </trkpt>
      <trkpt lat="44.57621" lon="0.82655">
        <ele>126.9</ele>
      </trkpt>
      <trkpt lat="44.57642" lon="0.82671">
        <ele>129.8</ele>
      </trkpt>
      <trkpt lat="44.57688" lon="0.82597">
        <ele>130.3</ele>
      </trkpt>
      <trkpt lat="44.57699" lon="0.82593">
        <ele>131.4</ele>
      </trkpt>
      <trkpt lat="44.57736" lon="0.82613">
        <ele>137.2</ele>
      </trkpt>
      <trkpt lat="44.57795" lon="0.826">
        <ele>139.9</ele>
      </trkpt>
      <trkpt lat="44.57866" lon="0.82536">
        <ele>140.8</ele>
      </trkpt>
      <trkpt lat="44.57955" lon="0.82467">
        <ele>145.2</ele>
      </trkpt>
      <trkpt lat="44.57974" lon="0.82462">
        <ele>146.3</ele>
      </trkpt>
      <trkpt lat="44.58004" lon="0.82472">
        <ele>147.8</ele>
      </trkpt>
      <trkpt lat="44.58009" lon="0.82473">
        <ele>147.7</ele>
      </trkpt>
      <trkpt lat="44.58007" lon="0.8248">
        <ele>147.7</ele>
        <extensions>
          <visugpx:TrkExtension xmlns:visugpx="https://www.visugpx.com/editgpx/">
            <visugpx:node>47</visugpx:node>
            </visugpx:TrkExtension>
        </extensions>
      </trkpt>
      <trkpt lat="44.58009" lon="0.82473">
        <ele>147.7</ele>
      </trkpt>
      <trkpt lat="44.58011" lon="0.82451">
        <ele>146.7</ele>
      </trkpt>
      <trkpt lat="44.58012" lon="0.82417">
        <ele>145.4</ele>
      </trkpt>
      <trkpt lat="44.58006" lon="0.82342">
        <ele>143.5</ele>
      </trkpt>
      <trkpt lat="44.58" lon="0.8223">
        <ele>141</ele>
      </trkpt>
      <trkpt lat="44.58001" lon="0.82178">
        <ele>141.9</ele>
      </trkpt>
      <trkpt lat="44.58005" lon="0.82147">
        <ele>141.8</ele>
      </trkpt>
      <trkpt lat="44.58009" lon="0.82121">
        <ele>142.3</ele>
      </trkpt>
      <trkpt lat="44.58024" lon="0.82044">
        <ele>141.7</ele>
      </trkpt>
      <trkpt lat="44.58036" lon="0.81994">
        <ele>142.3</ele>
      </trkpt>
      <trkpt lat="44.5804" lon="0.81977">
        <ele>142.5</ele>
      </trkpt>
      <trkpt lat="44.58075" lon="0.81822">
        <ele>146</ele>
      </trkpt>
      <trkpt lat="44.58081" lon="0.81795">
        <ele>146.5</ele>
      </trkpt>
      <trkpt lat="44.58094" lon="0.81794">
        <ele>145.6</ele>
      </trkpt>
      <trkpt lat="44.58105" lon="0.818">
        <ele>144.6</ele>
      </trkpt>
      <trkpt lat="44.58125" lon="0.8182">
        <ele>141.7</ele>
      </trkpt>
      <trkpt lat="44.58147" lon="0.81835">
        <ele>139.4</ele>
      </trkpt>
      <trkpt lat="44.58154" lon="0.81837">
        <ele>139</ele>
      </trkpt>
      <trkpt lat="44.58161" lon="0.81832">
        <ele>138.4</ele>
      </trkpt>
      <trkpt lat="44.58183" lon="0.81786">
        <ele>137.5</ele>
      </trkpt>
      <trkpt lat="44.58198" lon="0.81769">
        <ele>137.1</ele>
      </trkpt>
      <trkpt lat="44.58249" lon="0.81701">
        <ele>136.8</ele>
      </trkpt>
      <trkpt lat="44.58279" lon="0.81649">
        <ele>135.9</ele>
      </trkpt>
      <trkpt lat="44.583" lon="0.81622">
        <ele>134.3</ele>
      </trkpt>
      <trkpt lat="44.58317" lon="0.81598">
        <ele>133.3</ele>
      </trkpt>
      <trkpt lat="44.58339" lon="0.81575">
        <ele>132.3</ele>
      </trkpt>
      <trkpt lat="44.58363" lon="0.81546">
        <ele>130.9</ele>
      </trkpt>
      <trkpt lat="44.58378" lon="0.81535">
        <ele>130.1</ele>
      </trkpt>
      <trkpt lat="44.58408" lon="0.81517">
        <ele>129</ele>
      </trkpt>
      <trkpt lat="44.58422" lon="0.81506">
        <ele>128.2</ele>
      </trkpt>
      <trkpt lat="44.58438" lon="0.81506">
        <ele>127.3</ele>
      </trkpt>
      <trkpt lat="44.58452" lon="0.81502">
        <ele>125.9</ele>
      </trkpt>
      <trkpt lat="44.58508" lon="0.81461">
        <ele>118.1</ele>
      </trkpt>
      <trkpt lat="44.58524" lon="0.8144">
        <ele>116.4</ele>
      </trkpt>
      <trkpt lat="44.58573" lon="0.81367">
        <ele>111.5</ele>
      </trkpt>
      <trkpt lat="44.58592" lon="0.81331">
        <ele>109.2</ele>
      </trkpt>
      <trkpt lat="44.58594" lon="0.81329">
        <ele>108.8</ele>
        <extensions>
          <visugpx:TrkExtension xmlns:visugpx="https://www.visugpx.com/editgpx/">
            <visugpx:node>48</visugpx:node>
            </visugpx:TrkExtension>
        </extensions>
      </trkpt>
      <trkpt lat="44.58592" lon="0.81331">
        <ele>109.2</ele>
      </trkpt>
      <trkpt lat="44.58602" lon="0.81353">
        <ele>108.9</ele>
      </trkpt>
      <trkpt lat="44.58622" lon="0.81397">
        <ele>106.1</ele>
      </trkpt>
      <trkpt lat="44.5863" lon="0.81411">
        <ele>106</ele>
      </trkpt>
      <trkpt lat="44.58647" lon="0.81416">
        <ele>105.7</ele>
      </trkpt>
      <trkpt lat="44.58663" lon="0.81419">
        <ele>105.4</ele>
      </trkpt>
      <trkpt lat="44.58677" lon="0.81424">
        <ele>105.3</ele>
      </trkpt>
      <trkpt lat="44.58689" lon="0.81443">
        <ele>106.3</ele>
      </trkpt>
      <trkpt lat="44.5874" lon="0.81478">
        <ele>103.9</ele>
      </trkpt>
      <trkpt lat="44.58807" lon="0.81551">
        <ele>102.8</ele>
      </trkpt>
      <trkpt lat="44.58814" lon="0.81552">
        <ele>102.6</ele>
      </trkpt>
      <trkpt lat="44.58831" lon="0.81517">
        <ele>101.1</ele>
      </trkpt>
      <trkpt lat="44.58843" lon="0.8151">
        <ele>101</ele>
      </trkpt>
      <trkpt lat="44.58853" lon="0.81512">
        <ele>101</ele>
      </trkpt>
      <trkpt lat="44.58881" lon="0.8154">
        <ele>101.4</ele>
      </trkpt>
      <trkpt lat="44.58893" lon="0.81546">
        <ele>101.7</ele>
      </trkpt>
      <trkpt lat="44.58981" lon="0.81559">
        <ele>101.8</ele>
      </trkpt>
      <trkpt lat="44.59011" lon="0.81572">
        <ele>101.4</ele>
      </trkpt>
      <trkpt lat="44.59046" lon="0.81574">
        <ele>100.8</ele>
      </trkpt>
      <trkpt lat="44.59063" lon="0.81578">
        <ele>100.6</ele>
      </trkpt>
      <trkpt lat="44.59086" lon="0.81588">
        <ele>100.3</ele>
      </trkpt>
      <trkpt lat="44.59097" lon="0.81594">
        <ele>100.6</ele>
      </trkpt>
      <trkpt lat="44.59136" lon="0.81637">
        <ele>101.2</ele>
      </trkpt>
      <trkpt lat="44.59183" lon="0.81667">
        <ele>102</ele>
      </trkpt>
      <trkpt lat="44.59201" lon="0.81701">
        <ele>102.5</ele>
      </trkpt>
      <trkpt lat="44.59208" lon="0.81706">
        <ele>102.8</ele>
      </trkpt>
      <trkpt lat="44.59224" lon="0.81707">
        <ele>102.8</ele>
      </trkpt>
      <trkpt lat="44.59239" lon="0.8171">
        <ele>102.5</ele>
      </trkpt>
      <trkpt lat="44.59306" lon="0.81758">
        <ele>103.8</ele>
      </trkpt>
      <trkpt lat="44.59421" lon="0.81826">
        <ele>102.7</ele>
      </trkpt>
      <trkpt lat="44.59429" lon="0.81812">
        <ele>102.2</ele>
      </trkpt>
      <trkpt lat="44.59438" lon="0.81796">
        <ele>102</ele>
      </trkpt>
      <trkpt lat="44.59456" lon="0.81782">
        <ele>102.4</ele>
      </trkpt>
      <trkpt lat="44.59464" lon="0.81778">
        <ele>102.7</ele>
      </trkpt>
      <trkpt lat="44.59477" lon="0.81776">
        <ele>103</ele>
      </trkpt>
      <trkpt lat="44.59489" lon="0.81756">
        <ele>102.5</ele>
      </trkpt>
      <trkpt lat="44.59502" lon="0.81737">
        <ele>102.5</ele>
      </trkpt>
      <trkpt lat="44.59512" lon="0.81712">
        <ele>103</ele>
      </trkpt>
      <trkpt lat="44.59514" lon="0.81663">
        <ele>103.6</ele>
      </trkpt>
      <trkpt lat="44.59516" lon="0.8165">
        <ele>103.8</ele>
      </trkpt>
      <trkpt lat="44.59523" lon="0.8161">
        <ele>105.1</ele>
      </trkpt>
      <trkpt lat="44.59541" lon="0.81535">
        <ele>111.1</ele>
      </trkpt>
      <trkpt lat="44.59571" lon="0.81428">
        <ele>113.8</ele>
      </trkpt>
      <trkpt lat="44.59583" lon="0.8137">
        <ele>119</ele>
      </trkpt>
      <trkpt lat="44.59582" lon="0.81319">
        <ele>126.3</ele>
      </trkpt>
      <trkpt lat="44.59594" lon="0.81282">
        <ele>129.9</ele>
      </trkpt>
      <trkpt lat="44.59654" lon="0.81168">
        <ele>133.4</ele>
      </trkpt>
      <trkpt lat="44.59665" lon="0.81147">
        <ele>134.4</ele>
      </trkpt>
      <trkpt lat="44.59696" lon="0.8116">
        <ele>133.1</ele>
      </trkpt>
      <trkpt lat="44.5974" lon="0.81173">
        <ele>130.4</ele>
      </trkpt>
      <trkpt lat="44.59768" lon="0.81185">
        <ele>128.8</ele>
      </trkpt>
      <trkpt lat="44.59784" lon="0.81206">
        <ele>127</ele>
      </trkpt>
      <trkpt lat="44.59794" lon="0.81223">
        <ele>126.2</ele>
      </trkpt>
      <trkpt lat="44.59819" lon="0.81227">
        <ele>127.6</ele>
      </trkpt>
      <trkpt lat="44.59852" lon="0.81244">
        <ele>131.1</ele>
      </trkpt>
      <trkpt lat="44.59861" lon="0.81238">
        <ele>133</ele>
      </trkpt>
      <trkpt lat="44.59866" lon="0.81221">
        <ele>133.5</ele>
      </trkpt>
      <trkpt lat="44.59876" lon="0.81212">
        <ele>134.2</ele>
      </trkpt>
      <trkpt lat="44.59896" lon="0.81207">
        <ele>136.4</ele>
      </trkpt>
      <trkpt lat="44.59905" lon="0.81201">
        <ele>137.4</ele>
      </trkpt>
      <trkpt lat="44.59911" lon="0.81165">
        <ele>137.4</ele>
      </trkpt>
      <trkpt lat="44.59919" lon="0.81133">
        <ele>138.5</ele>
      </trkpt>
      <trkpt lat="44.59926" lon="0.81128">
        <ele>139.6</ele>
      </trkpt>
      <trkpt lat="44.59938" lon="0.8113">
        <ele>141.1</ele>
      </trkpt>
      <trkpt lat="44.59949" lon="0.81145">
        <ele>142.8</ele>
      </trkpt>
      <trkpt lat="44.59959" lon="0.81137">
        <ele>144</ele>
      </trkpt>
      <trkpt lat="44.59976" lon="0.81114">
        <ele>144.6</ele>
      </trkpt>
      <trkpt lat="44.60013" lon="0.81057">
        <ele>147.9</ele>
      </trkpt>
      <trkpt lat="44.6003" lon="0.81026">
        <ele>149.1</ele>
      </trkpt>
      <trkpt lat="44.60048" lon="0.8099">
        <ele>149.8</ele>
      </trkpt>
      <trkpt lat="44.60065" lon="0.80946">
        <ele>150.6</ele>
      </trkpt>
      <trkpt lat="44.6011" lon="0.80857">
        <ele>153.4</ele>
      </trkpt>
      <trkpt lat="44.6012" lon="0.80835">
        <ele>153.9</ele>
      </trkpt>
      <trkpt lat="44.60162" lon="0.80783">
        <ele>154.7</ele>
      </trkpt>
      <trkpt lat="44.60193" lon="0.80742">
        <ele>155.7</ele>
      </trkpt>
      <trkpt lat="44.60205" lon="0.8073">
        <ele>156.1</ele>
      </trkpt>
      <trkpt lat="44.60222" lon="0.80721">
        <ele>156.1</ele>
      </trkpt>
      <trkpt lat="44.60241" lon="0.80714">
        <ele>155.9</ele>
      </trkpt>
      <trkpt lat="44.60267" lon="0.80688">
        <ele>157.5</ele>
      </trkpt>
      <trkpt lat="44.60282" lon="0.80668">
        <ele>159.1</ele>
      </trkpt>
      <trkpt lat="44.60306" lon="0.8065">
        <ele>161.2</ele>
      </trkpt>
      <trkpt lat="44.60377" lon="0.80586">
        <ele>169</ele>
      </trkpt>
      <trkpt lat="44.60391" lon="0.80562">
        <ele>170.1</ele>
      </trkpt>
      <trkpt lat="44.60402" lon="0.80537">
        <ele>171.3</ele>
      </trkpt>
      <trkpt lat="44.60413" lon="0.8053">
        <ele>171.9</ele>
      </trkpt>
      <trkpt lat="44.60424" lon="0.80509">
        <ele>171.5</ele>
      </trkpt>
      <trkpt lat="44.60451" lon="0.80487">
        <ele>171.5</ele>
      </trkpt>
      <trkpt lat="44.60467" lon="0.80471">
        <ele>171</ele>
      </trkpt>
      <trkpt lat="44.60457" lon="0.80463">
        <ele>170.8</ele>
      </trkpt>
      <trkpt lat="44.60465" lon="0.80443">
        <ele>170.7</ele>
      </trkpt>
      <trkpt lat="44.60476" lon="0.80408">
        <ele>169.9</ele>
      </trkpt>
      <trkpt lat="44.60509" lon="0.8032">
        <ele>169.2</ele>
      </trkpt>
      <trkpt lat="44.60528" lon="0.80279">
        <ele>170</ele>
        <extensions>
          <visugpx:TrkExtension xmlns:visugpx="https://www.visugpx.com/editgpx/">
            <visugpx:node>49</visugpx:node>
            </visugpx:TrkExtension>
        </extensions>
      </trkpt>
    </trkseg>
  </trk>
</gpx>